UAL303 KLAX-PHKO
Flight info
| Callsign | UAL303 |
|---|---|
| Flight time | N/A |
| Altitude | 12000 |
| Route | ZILLI5 FICKY R578 FLITY/N0209F140 R578 FIZEL/N0214F160 R578 FITES OKALA VECKI9 |
| Aircraft | DC6/M-SDE1FGHIRWXY/S |
Departure
| Time | 2026-04-26 08:55 |
|---|---|
| Airport | Los Angeles International Airport (KLAX) |
Arrival
| Time | N/A |
|---|---|
| Airport | Ellison Onizuka Kona International Airport at Keāhole (PHKO) |
| Time | Latitude | Longitude | Altitude | Speed | Heading |
|---|---|---|---|---|---|
| 2026-04-26 08:36 | 33.94304 | -118.43179 | 122 ft | 0 kts | 343° |
| 2026-04-26 08:43 | 33.94305 | -118.43179 | 125 ft | 1 kts | 354° |
| 2026-04-26 08:43 | 33.94356 | -118.43175 | 125 ft | 11 kts | 4° |
| 2026-04-26 08:43 | 33.94433 | -118.43166 | 124 ft | 11 kts | 7° |
| 2026-04-26 08:43 | 33.94480 | -118.43136 | 125 ft | 7 kts | 34° |
| 2026-04-26 08:44 | 33.94519 | -118.43116 | 124 ft | 9 kts | 8° |
| 2026-04-26 08:44 | 33.94596 | -118.43082 | 124 ft | 15 kts | 63° |
| 2026-04-26 08:44 | 33.94613 | -118.42928 | 125 ft | 21 kts | 83° |
| 2026-04-26 08:44 | 33.94633 | -118.42745 | 124 ft | 24 kts | 83° |
| 2026-04-26 08:45 | 33.94654 | -118.42518 | 125 ft | 29 kts | 83° |
| 2026-04-26 08:45 | 33.94679 | -118.42274 | 125 ft | 30 kts | 83° |
| 2026-04-26 08:45 | 33.94707 | -118.42014 | 125 ft | 33 kts | 82° |
| 2026-04-26 08:45 | 33.94735 | -118.41737 | 124 ft | 34 kts | 83° |
| 2026-04-26 08:46 | 33.94767 | -118.41452 | 123 ft | 35 kts | 77° |
| 2026-04-26 08:46 | 33.94809 | -118.41167 | 125 ft | 32 kts | 83° |
| 2026-04-26 08:46 | 33.94827 | -118.40979 | 125 ft | 16 kts | 82° |
| 2026-04-26 08:46 | 33.94841 | -118.40838 | 125 ft | 21 kts | 83° |
| 2026-04-26 08:47 | 33.94862 | -118.40633 | 121 ft | 27 kts | 82° |
| 2026-04-26 08:47 | 33.94884 | -118.40407 | 125 ft | 27 kts | 84° |
| 2026-04-26 08:47 | 33.94905 | -118.40203 | 121 ft | 11 kts | 72° |
| 2026-04-26 08:47 | 33.94916 | -118.40183 | 124 ft | 0 kts | 39° |
| 2026-04-26 08:48 | 33.94916 | -118.40184 | 124 ft | 0 kts | 39° |
| 2026-04-26 08:50 | 33.94959 | -118.40172 | 122 ft | 12 kts | 354° |
| 2026-04-26 08:50 | 33.95011 | -118.40239 | 124 ft | 11 kts | 269° |
| 2026-04-26 08:51 | 33.95010 | -118.40258 | 125 ft | 0 kts | 261° |
| 2026-04-26 08:53 | 33.95000 | -118.40359 | 125 ft | 24 kts | 263° |
| 2026-04-26 08:53 | 33.94965 | -118.40700 | 125 ft | 60 kts | 263° |
| 2026-04-26 08:54 | 33.94900 | -118.41357 | 126 ft | 97 kts | 262° |
| 2026-04-26 08:54 | 33.94798 | -118.42259 | 183 ft | 116 kts | 259° |
| 2026-04-26 08:54 | 33.94688 | -118.43254 | 388 ft | 119 kts | 261° |
| 2026-04-26 08:54 | 33.94612 | -118.44299 | 455 ft | 140 kts | 260° |
| 2026-04-26 08:55 | 33.94354 | -118.45548 | 467 ft | 160 kts | 250° |
| 2026-04-26 08:55 | 33.94152 | -118.46911 | 587 ft | 172 kts | 263° |
| 2026-04-26 08:55 | 33.94086 | -118.48376 | 819 ft | 177 kts | 265° |
| 2026-04-26 08:55 | 33.94010 | -118.49835 | 1105 ft | 174 kts | 266° |
| 2026-04-26 08:56 | 33.93975 | -118.51279 | 1339 ft | 172 kts | 273° |
| 2026-04-26 08:56 | 33.94040 | -118.52711 | 1530 ft | 171 kts | 269° |
| 2026-04-26 08:56 | 33.93968 | -118.54126 | 1751 ft | 169 kts | 265° |
| 2026-04-26 08:56 | 33.93857 | -118.55563 | 1844 ft | 174 kts | 265° |
| 2026-04-26 08:57 | 33.93747 | -118.57013 | 2029 ft | 174 kts | 264° |
| 2026-04-26 08:57 | 33.93632 | -118.58460 | 2253 ft | 174 kts | 265° |
| 2026-04-26 08:57 | 33.93518 | -118.59918 | 2413 ft | 175 kts | 265° |
| 2026-04-26 08:57 | 33.93405 | -118.61367 | 2649 ft | 173 kts | 265° |
| 2026-04-26 08:58 | 33.93267 | -118.62810 | 2812 ft | 174 kts | 259° |
| 2026-04-26 08:58 | 33.92673 | -118.64083 | 2938 ft | 179 kts | 226° |
| 2026-04-26 08:58 | 33.91555 | -118.64761 | 3107 ft | 186 kts | 195° |
| 2026-04-26 08:58 | 33.90256 | -118.64791 | 3267 ft | 188 kts | 182° |
| 2026-04-26 08:59 | 33.88941 | -118.64760 | 3417 ft | 189 kts | 184° |
| 2026-04-26 08:59 | 33.87633 | -118.64810 | 3622 ft | 187 kts | 188° |
| 2026-04-26 08:59 | 33.86328 | -118.64912 | 3795 ft | 188 kts | 189° |
| 2026-04-26 08:59 | 33.85024 | -118.65015 | 3986 ft | 189 kts | 188° |
| 2026-04-26 09:00 | 33.83729 | -118.65111 | 4185 ft | 188 kts | 188° |
| 2026-04-26 09:00 | 33.82398 | -118.65215 | 4322 ft | 190 kts | 189° |
| 2026-04-26 09:00 | 33.81089 | -118.65314 | 4522 ft | 188 kts | 189° |
| 2026-04-26 09:00 | 33.79773 | -118.65417 | 4684 ft | 190 kts | 189° |
| 2026-04-26 09:01 | 33.78448 | -118.65517 | 4833 ft | 192 kts | 188° |
| 2026-04-26 09:01 | 33.77119 | -118.65619 | 5022 ft | 191 kts | 189° |
| 2026-04-26 09:01 | 33.75805 | -118.65719 | 5183 ft | 192 kts | 189° |
| 2026-04-26 09:01 | 33.74459 | -118.65833 | 5361 ft | 190 kts | 192° |
| 2026-04-26 09:02 | 33.73163 | -118.66066 | 5504 ft | 191 kts | 192° |
| 2026-04-26 09:02 | 33.71825 | -118.66247 | 5688 ft | 191 kts | 192° |
| 2026-04-26 09:02 | 33.70500 | -118.66442 | 5845 ft | 192 kts | 192° |
| 2026-04-26 09:02 | 33.69176 | -118.66643 | 6025 ft | 192 kts | 193° |
| 2026-04-26 09:03 | 33.67850 | -118.66848 | 6187 ft | 192 kts | 192° |
| 2026-04-26 09:03 | 33.66525 | -118.67056 | 6353 ft | 193 kts | 192° |
| 2026-04-26 09:03 | 33.65192 | -118.67265 | 6508 ft | 193 kts | 193° |
| 2026-04-26 09:03 | 33.63860 | -118.67472 | 6677 ft | 193 kts | 193° |
| 2026-04-26 09:04 | 33.62531 | -118.67680 | 6826 ft | 194 kts | 192° |
| 2026-04-26 09:04 | 33.61193 | -118.67889 | 6991 ft | 193 kts | 193° |
| 2026-04-26 09:04 | 33.59854 | -118.68098 | 7124 ft | 195 kts | 192° |
| 2026-04-26 09:04 | 33.58510 | -118.68307 | 7286 ft | 194 kts | 192° |
| 2026-04-26 09:05 | 33.57167 | -118.68517 | 7438 ft | 196 kts | 193° |
| 2026-04-26 09:05 | 33.55818 | -118.68727 | 7598 ft | 195 kts | 193° |
| 2026-04-26 09:05 | 33.54463 | -118.68938 | 7753 ft | 196 kts | 193° |
| 2026-04-26 09:05 | 33.53110 | -118.69149 | 7916 ft | 196 kts | 193° |
| 2026-04-26 09:06 | 33.51753 | -118.69361 | 8080 ft | 197 kts | 193° |
| 2026-04-26 09:06 | 33.50395 | -118.69571 | 8238 ft | 197 kts | 193° |
| 2026-04-26 09:06 | 33.49031 | -118.69785 | 8392 ft | 198 kts | 193° |
| 2026-04-26 09:06 | 33.47661 | -118.69997 | 8539 ft | 199 kts | 193° |
| 2026-04-26 09:07 | 33.46289 | -118.70211 | 8704 ft | 199 kts | 193° |
| 2026-04-26 09:07 | 33.44915 | -118.70425 | 8858 ft | 200 kts | 193° |
| 2026-04-26 09:07 | 33.43542 | -118.70656 | 8990 ft | 198 kts | 197° |
| 2026-04-26 09:07 | 33.42342 | -118.71371 | 9048 ft | 191 kts | 226° |
| 2026-04-26 09:08 | 33.41473 | -118.72537 | 9214 ft | 188 kts | 233° |
| 2026-04-26 09:08 | 33.40581 | -118.73687 | 9346 ft | 189 kts | 229° |
| 2026-04-26 09:08 | 33.39657 | -118.74809 | 9482 ft | 190 kts | 229° |
| 2026-04-26 09:08 | 33.38732 | -118.75940 | 9620 ft | 190 kts | 229° |
| 2026-04-26 09:09 | 33.37806 | -118.77069 | 9773 ft | 190 kts | 229° |
| 2026-04-26 09:09 | 33.36880 | -118.78203 | 9916 ft | 191 kts | 229° |
| 2026-04-26 09:09 | 33.35949 | -118.79337 | 10059 ft | 191 kts | 229° |
| 2026-04-26 09:09 | 33.35022 | -118.80470 | 10210 ft | 191 kts | 229° |
| 2026-04-26 09:10 | 33.34091 | -118.81605 | 10332 ft | 191 kts | 230° |
| 2026-04-26 09:10 | 33.33159 | -118.82743 | 10470 ft | 191 kts | 229° |
| 2026-04-26 09:10 | 33.32227 | -118.83879 | 10622 ft | 191 kts | 230° |
| 2026-04-26 09:10 | 33.31293 | -118.85017 | 10735 ft | 192 kts | 230° |
| 2026-04-26 09:11 | 33.30357 | -118.86159 | 10879 ft | 192 kts | 230° |
| 2026-04-26 09:11 | 33.29421 | -118.87298 | 11003 ft | 192 kts | 230° |
| 2026-04-26 09:11 | 33.28484 | -118.88439 | 11130 ft | 192 kts | 230° |
| 2026-04-26 09:11 | 33.27546 | -118.89580 | 11249 ft | 192 kts | 230° |
| 2026-04-26 09:12 | 33.26609 | -118.90720 | 11362 ft | 192 kts | 230° |
| 2026-04-26 09:12 | 33.25669 | -118.91865 | 11460 ft | 193 kts | 230° |
| 2026-04-26 09:12 | 33.24731 | -118.93006 | 11575 ft | 193 kts | 230° |
| 2026-04-26 09:12 | 33.23792 | -118.94148 | 11681 ft | 193 kts | 230° |
| 2026-04-26 09:13 | 33.22850 | -118.95291 | 11787 ft | 193 kts | 230° |
| 2026-04-26 09:13 | 33.21908 | -118.96437 | 11900 ft | 193 kts | 230° |
| 2026-04-26 09:13 | 33.20952 | -118.97599 | 11923 ft | 199 kts | 230° |
| 2026-04-26 09:13 | 33.19969 | -118.98795 | 11930 ft | 205 kts | 230° |
| 2026-04-26 09:14 | 33.18959 | -119.00023 | 11929 ft | 210 kts | 230° |
| 2026-04-26 09:14 | 33.17922 | -119.01281 | 11926 ft | 214 kts | 230° |
| 2026-04-26 09:14 | 33.16866 | -119.02562 | 11925 ft | 218 kts | 230° |
| 2026-04-26 09:14 | 33.15792 | -119.03865 | 11925 ft | 222 kts | 229° |
| 2026-04-26 09:15 | 33.14703 | -119.05187 | 11922 ft | 225 kts | 230° |
| 2026-04-26 09:15 | 33.13599 | -119.06525 | 11923 ft | 227 kts | 229° |
| 2026-04-26 09:15 | 33.12484 | -119.07876 | 11919 ft | 230 kts | 229° |
| 2026-04-26 09:15 | 33.11360 | -119.09237 | 11922 ft | 231 kts | 229° |
| 2026-04-26 09:16 | 33.10229 | -119.10607 | 11920 ft | 233 kts | 229° |
| 2026-04-26 09:16 | 33.09093 | -119.11981 | 11927 ft | 232 kts | 229° |
| 2026-04-26 09:16 | 33.07965 | -119.13346 | 11923 ft | 229 kts | 229° |
| 2026-04-26 09:16 | 33.06855 | -119.14688 | 11919 ft | 226 kts | 229° |
| 2026-04-26 09:17 | 33.05759 | -119.16012 | 11920 ft | 223 kts | 230° |
| 2026-04-26 09:17 | 33.04673 | -119.17326 | 11919 ft | 222 kts | 229° |
| 2026-04-26 09:17 | 33.03592 | -119.18633 | 11920 ft | 220 kts | 230° |
| 2026-04-26 09:17 | 33.02518 | -119.19930 | 11921 ft | 219 kts | 229° |
| 2026-04-26 09:18 | 33.01448 | -119.21222 | 11916 ft | 218 kts | 230° |
| 2026-04-26 09:18 | 33.00382 | -119.22509 | 11913 ft | 218 kts | 230° |
| 2026-04-26 09:18 | 32.99320 | -119.23790 | 11917 ft | 217 kts | 230° |
| 2026-04-26 09:18 | 32.98263 | -119.25066 | 11915 ft | 216 kts | 230° |
| 2026-04-26 09:19 | 32.97207 | -119.26338 | 11916 ft | 215 kts | 230° |
| 2026-04-26 09:19 | 32.96157 | -119.27604 | 11916 ft | 215 kts | 230° |
| 2026-04-26 09:19 | 32.95106 | -119.28870 | 11904 ft | 214 kts | 230° |
| 2026-04-26 09:19 | 32.94060 | -119.30130 | 11915 ft | 214 kts | 230° |
| 2026-04-26 09:20 | 32.93013 | -119.31390 | 11915 ft | 214 kts | 230° |
| 2026-04-26 09:20 | 32.91970 | -119.32647 | 11898 ft | 213 kts | 230° |
| 2026-04-26 09:20 | 32.90926 | -119.33901 | 11916 ft | 213 kts | 230° |
| 2026-04-26 09:20 | 32.89885 | -119.35154 | 11914 ft | 213 kts | 230° |
| 2026-04-26 09:21 | 32.88844 | -119.36405 | 11913 ft | 212 kts | 230° |
| 2026-04-26 09:21 | 32.87807 | -119.37652 | 11922 ft | 212 kts | 230° |
| 2026-04-26 09:21 | 32.86771 | -119.38896 | 11918 ft | 212 kts | 230° |
| 2026-04-26 09:21 | 32.85735 | -119.40141 | 11917 ft | 212 kts | 230° |
| 2026-04-26 09:22 | 32.84699 | -119.41384 | 11916 ft | 212 kts | 230° |
| 2026-04-26 09:22 | 32.83663 | -119.42627 | 11919 ft | 212 kts | 230° |
| 2026-04-26 09:22 | 32.82627 | -119.43870 | 11919 ft | 211 kts | 230° |
| 2026-04-26 09:22 | 32.81592 | -119.45112 | 11922 ft | 211 kts | 230° |
| 2026-04-26 09:23 | 32.80556 | -119.46353 | 11920 ft | 211 kts | 230° |
| 2026-04-26 09:23 | 32.79522 | -119.47593 | 11919 ft | 211 kts | 230° |
| 2026-04-26 09:23 | 32.78486 | -119.48834 | 11921 ft | 211 kts | 230° |
| 2026-04-26 09:23 | 32.77449 | -119.50075 | 11919 ft | 211 kts | 230° |
| 2026-04-26 09:24 | 32.76414 | -119.51314 | 11920 ft | 211 kts | 230° |
| 2026-04-26 09:24 | 32.75378 | -119.52554 | 11921 ft | 211 kts | 230° |
| 2026-04-26 09:24 | 32.74344 | -119.53793 | 11918 ft | 211 kts | 230° |
| 2026-04-26 09:24 | 32.73308 | -119.55030 | 11922 ft | 211 kts | 230° |
| 2026-04-26 09:25 | 32.72275 | -119.56266 | 11921 ft | 211 kts | 230° |
| 2026-04-26 09:25 | 32.71240 | -119.57502 | 11921 ft | 211 kts | 230° |
| 2026-04-26 09:25 | 32.70207 | -119.58737 | 11923 ft | 211 kts | 230° |
| 2026-04-26 09:25 | 32.69172 | -119.59972 | 11920 ft | 211 kts | 230° |
| 2026-04-26 09:26 | 32.68137 | -119.61208 | 11921 ft | 211 kts | 230° |
| 2026-04-26 09:26 | 32.67102 | -119.62443 | 11923 ft | 211 kts | 230° |
| 2026-04-26 09:26 | 32.66068 | -119.63676 | 11923 ft | 211 kts | 230° |
| 2026-04-26 09:26 | 32.65034 | -119.64911 | 11924 ft | 211 kts | 230° |
| 2026-04-26 09:27 | 32.64000 | -119.66143 | 11922 ft | 211 kts | 230° |
| 2026-04-26 09:27 | 32.62965 | -119.67375 | 11925 ft | 211 kts | 230° |
| 2026-04-26 09:27 | 32.61929 | -119.68610 | 11926 ft | 211 kts | 230° |
| 2026-04-26 09:27 | 32.60896 | -119.69840 | 11924 ft | 210 kts | 230° |
| 2026-04-26 09:28 | 32.59865 | -119.71069 | 11925 ft | 210 kts | 230° |
| 2026-04-26 09:28 | 32.59178 | -119.71885 | 11921 ft | 210 kts | 230° |
| 2026-04-26 09:28 | 32.58146 | -119.73113 | 11923 ft | 210 kts | 230° |
| 2026-04-26 09:28 | 32.56782 | -119.74740 | 11924 ft | 210 kts | 230° |
| 2026-04-26 09:29 | 32.56085 | -119.75570 | 11923 ft | 210 kts | 230° |
| 2026-04-26 09:29 | 32.55056 | -119.76795 | 11925 ft | 210 kts | 230° |
| 2026-04-26 09:29 | 32.54025 | -119.78021 | 11927 ft | 210 kts | 230° |
| 2026-04-26 09:29 | 32.52995 | -119.79247 | 11927 ft | 210 kts | 230° |
| 2026-04-26 09:30 | 32.51964 | -119.80473 | 11925 ft | 210 kts | 230° |
| 2026-04-26 09:30 | 32.50934 | -119.81697 | 11924 ft | 210 kts | 230° |
| 2026-04-26 09:30 | 32.49903 | -119.82923 | 11929 ft | 210 kts | 230° |
| 2026-04-26 09:30 | 32.48874 | -119.84145 | 11926 ft | 210 kts | 230° |
| 2026-04-26 09:31 | 32.47844 | -119.85368 | 11929 ft | 210 kts | 230° |
| 2026-04-26 09:31 | 32.46809 | -119.86597 | 11928 ft | 210 kts | 230° |
| 2026-04-26 09:31 | 32.45784 | -119.87814 | 11927 ft | 209 kts | 230° |
| 2026-04-26 09:31 | 32.44760 | -119.89027 | 11927 ft | 209 kts | 230° |
| 2026-04-26 09:32 | 32.43727 | -119.90253 | 11927 ft | 209 kts | 231° |
| 2026-04-26 09:32 | 32.42704 | -119.91467 | 11928 ft | 209 kts | 230° |
| 2026-04-26 09:32 | 32.41673 | -119.92689 | 11933 ft | 209 kts | 231° |
| 2026-04-26 09:32 | 32.40651 | -119.93898 | 11928 ft | 209 kts | 231° |
| 2026-04-26 09:33 | 32.39625 | -119.95115 | 11931 ft | 208 kts | 231° |
| 2026-04-26 09:33 | 32.38603 | -119.96323 | 11930 ft | 208 kts | 231° |
| 2026-04-26 09:33 | 32.37574 | -119.97543 | 11933 ft | 208 kts | 231° |
| 2026-04-26 09:33 | 32.36551 | -119.98752 | 11933 ft | 208 kts | 231° |
| 2026-04-26 09:34 | 32.35521 | -119.99971 | 11931 ft | 208 kts | 231° |
| 2026-04-26 09:34 | 32.34493 | -120.01185 | 11928 ft | 208 kts | 231° |
| 2026-04-26 09:34 | 32.33475 | -120.02388 | 11931 ft | 208 kts | 231° |
| 2026-04-26 09:34 | 32.32457 | -120.03593 | 11930 ft | 208 kts | 231° |
| 2026-04-26 09:35 | 32.31431 | -120.04803 | 11930 ft | 208 kts | 231° |
| 2026-04-26 09:35 | 32.30400 | -120.06021 | 11933 ft | 208 kts | 231° |
| 2026-04-26 09:35 | 32.29375 | -120.07230 | 11932 ft | 208 kts | 231° |
| 2026-04-26 09:35 | 32.28360 | -120.08429 | 11930 ft | 208 kts | 231° |
| 2026-04-26 09:36 | 32.27332 | -120.09640 | 11930 ft | 208 kts | 231° |
| 2026-04-26 09:36 | 32.26319 | -120.10836 | 11931 ft | 208 kts | 231° |
| 2026-04-26 09:36 | 32.25291 | -120.12048 | 11934 ft | 208 kts | 231° |
| 2026-04-26 09:36 | 32.24265 | -120.13256 | 11936 ft | 208 kts | 231° |
| 2026-04-26 09:37 | 32.23237 | -120.14467 | 11938 ft | 208 kts | 231° |
| 2026-04-26 09:37 | 32.22219 | -120.15665 | 11938 ft | 208 kts | 231° |
| 2026-04-26 09:37 | 32.21200 | -120.16866 | 11938 ft | 208 kts | 231° |
| 2026-04-26 09:37 | 32.20171 | -120.18075 | 11938 ft | 208 kts | 231° |
| 2026-04-26 09:38 | 32.19147 | -120.19281 | 11937 ft | 208 kts | 231° |
| 2026-04-26 09:38 | 32.18121 | -120.20487 | 11939 ft | 208 kts | 231° |
| 2026-04-26 09:38 | 32.17110 | -120.21676 | 11936 ft | 208 kts | 231° |
| 2026-04-26 09:38 | 32.16079 | -120.22886 | 11939 ft | 207 kts | 231° |
| 2026-04-26 09:39 | 32.15054 | -120.24091 | 11939 ft | 207 kts | 231° |
| 2026-04-26 09:39 | 32.14038 | -120.25284 | 11937 ft | 207 kts | 231° |
| 2026-04-26 09:39 | 32.13013 | -120.26488 | 11938 ft | 207 kts | 231° |
| 2026-04-26 09:39 | 32.11996 | -120.27682 | 11938 ft | 207 kts | 231° |
| 2026-04-26 09:40 | 32.10977 | -120.28876 | 11942 ft | 207 kts | 231° |
| 2026-04-26 09:40 | 32.09945 | -120.30088 | 11941 ft | 207 kts | 232° |
| 2026-04-26 09:40 | 32.08919 | -120.31289 | 11944 ft | 207 kts | 231° |
| 2026-04-26 09:40 | 32.07909 | -120.32474 | 11944 ft | 207 kts | 232° |
| 2026-04-26 09:41 | 32.06888 | -120.33669 | 11940 ft | 207 kts | 232° |
| 2026-04-26 09:41 | 32.05863 | -120.34871 | 11943 ft | 207 kts | 232° |
| 2026-04-26 09:41 | 32.04834 | -120.36074 | 11947 ft | 207 kts | 232° |
| 2026-04-26 09:41 | 32.03816 | -120.37268 | 11946 ft | 207 kts | 232° |
| 2026-04-26 09:42 | 32.02929 | -120.38584 | 11943 ft | 199 kts | 245° |
| 2026-04-26 09:42 | 32.02303 | -120.40022 | 11953 ft | 198 kts | 248° |
| 2026-04-26 09:42 | 32.01656 | -120.41463 | 11952 ft | 199 kts | 246° |
| 2026-04-26 09:42 | 32.00993 | -120.42888 | 11955 ft | 199 kts | 246° |
| 2026-04-26 09:43 | 32.00326 | -120.44321 | 11955 ft | 200 kts | 246° |
| 2026-04-26 09:43 | 31.99662 | -120.45752 | 11954 ft | 200 kts | 246° |
| 2026-04-26 09:43 | 31.98993 | -120.47191 | 11954 ft | 200 kts | 246° |
| 2026-04-26 09:43 | 31.98320 | -120.48643 | 11955 ft | 200 kts | 246° |
| 2026-04-26 09:44 | 31.97654 | -120.50076 | 11955 ft | 200 kts | 246° |
| 2026-04-26 09:44 | 31.96983 | -120.51520 | 11957 ft | 201 kts | 246° |
| 2026-04-26 09:44 | 31.96309 | -120.52971 | 11958 ft | 201 kts | 246° |
| 2026-04-26 09:44 | 31.95639 | -120.54411 | 11959 ft | 201 kts | 246° |
| 2026-04-26 09:45 | 31.94972 | -120.55845 | 11959 ft | 201 kts | 246° |
| 2026-04-26 09:45 | 31.94296 | -120.57298 | 11958 ft | 201 kts | 246° |
| 2026-04-26 09:45 | 31.93619 | -120.58753 | 11958 ft | 202 kts | 246° |
| 2026-04-26 09:45 | 31.92948 | -120.60192 | 11958 ft | 202 kts | 246° |
| 2026-04-26 09:46 | 31.92272 | -120.61642 | 11958 ft | 202 kts | 246° |
| 2026-04-26 09:46 | 31.91595 | -120.63094 | 11956 ft | 202 kts | 246° |
| 2026-04-26 09:46 | 31.90922 | -120.64540 | 11958 ft | 202 kts | 246° |
| 2026-04-26 09:46 | 31.90252 | -120.65973 | 11957 ft | 202 kts | 246° |
| 2026-04-26 09:47 | 31.89573 | -120.67436 | 11961 ft | 202 kts | 246° |
| 2026-04-26 09:47 | 31.88899 | -120.68872 | 11958 ft | 202 kts | 246° |
| 2026-04-26 09:47 | 31.88220 | -120.70324 | 11958 ft | 202 kts | 246° |
| 2026-04-26 09:47 | 31.87544 | -120.71775 | 11959 ft | 202 kts | 246° |
| 2026-04-26 09:48 | 31.86862 | -120.73235 | 11960 ft | 202 kts | 246° |
| 2026-04-26 09:48 | 31.86192 | -120.74666 | 11958 ft | 202 kts | 246° |
| 2026-04-26 09:48 | 31.85505 | -120.76135 | 11958 ft | 202 kts | 246° |
| 2026-04-26 09:48 | 31.84836 | -120.77566 | 11958 ft | 202 kts | 246° |
| 2026-04-26 09:49 | 31.84157 | -120.79015 | 11958 ft | 202 kts | 246° |
| 2026-04-26 09:49 | 31.83469 | -120.80484 | 11955 ft | 203 kts | 246° |
| 2026-04-26 09:49 | 31.82797 | -120.81918 | 11957 ft | 203 kts | 246° |
| 2026-04-26 09:49 | 31.82109 | -120.83389 | 11960 ft | 203 kts | 246° |
| 2026-04-26 09:50 | 31.81428 | -120.84839 | 11958 ft | 203 kts | 246° |
| 2026-04-26 09:50 | 31.80747 | -120.86291 | 11959 ft | 203 kts | 246° |
| 2026-04-26 09:50 | 31.80075 | -120.87723 | 11959 ft | 203 kts | 246° |
| 2026-04-26 09:50 | 31.79385 | -120.89194 | 11956 ft | 203 kts | 247° |
| 2026-04-26 09:51 | 31.78703 | -120.90647 | 11957 ft | 203 kts | 246° |
| 2026-04-26 09:51 | 31.78020 | -120.92099 | 11957 ft | 203 kts | 247° |
| 2026-04-26 09:51 | 31.77339 | -120.93550 | 11959 ft | 203 kts | 246° |
| 2026-04-26 09:51 | 31.76656 | -120.95003 | 11959 ft | 203 kts | 247° |
| 2026-04-26 09:52 | 31.75973 | -120.96454 | 11959 ft | 203 kts | 247° |
| 2026-04-26 09:52 | 31.74608 | -120.99354 | 11959 ft | 203 kts | 247° |
| 2026-04-26 09:52 | 31.73926 | -121.00803 | 11955 ft | 203 kts | 247° |
| 2026-04-26 09:53 | 31.73244 | -121.02251 | 11960 ft | 202 kts | 247° |
| 2026-04-26 09:53 | 31.72563 | -121.03698 | 11957 ft | 202 kts | 247° |
| 2026-04-26 09:53 | 31.71880 | -121.05145 | 11961 ft | 203 kts | 247° |
| 2026-04-26 09:53 | 31.71197 | -121.06592 | 11959 ft | 203 kts | 247° |
| 2026-04-26 09:54 | 31.70514 | -121.08042 | 11956 ft | 203 kts | 247° |
| 2026-04-26 09:54 | 31.69829 | -121.09491 | 11960 ft | 203 kts | 247° |
| 2026-04-26 09:54 | 31.69147 | -121.10937 | 11960 ft | 203 kts | 247° |
| 2026-04-26 09:54 | 31.68461 | -121.12389 | 11958 ft | 203 kts | 247° |
| 2026-04-26 09:55 | 31.67778 | -121.13836 | 11962 ft | 203 kts | 247° |
| 2026-04-26 09:55 | 31.67094 | -121.15283 | 11959 ft | 203 kts | 247° |
| 2026-04-26 09:55 | 31.66408 | -121.16732 | 11961 ft | 203 kts | 247° |
| 2026-04-26 09:55 | 31.65724 | -121.18179 | 11961 ft | 203 kts | 247° |
| 2026-04-26 09:56 | 31.65038 | -121.19627 | 11958 ft | 203 kts | 247° |
| 2026-04-26 09:56 | 31.64354 | -121.21075 | 11958 ft | 203 kts | 247° |
| 2026-04-26 09:56 | 31.63667 | -121.22522 | 11959 ft | 203 kts | 247° |
| 2026-04-26 09:56 | 31.62982 | -121.23971 | 11958 ft | 203 kts | 247° |
| 2026-04-26 09:57 | 31.62295 | -121.25417 | 11958 ft | 203 kts | 247° |
| 2026-04-26 09:57 | 31.61608 | -121.26870 | 11960 ft | 203 kts | 247° |
| 2026-04-26 09:57 | 31.60920 | -121.28317 | 11963 ft | 203 kts | 247° |
| 2026-04-26 09:57 | 31.60232 | -121.29769 | 11962 ft | 204 kts | 247° |
| 2026-04-26 09:58 | 31.59543 | -121.31220 | 11963 ft | 204 kts | 247° |
| 2026-04-26 09:58 | 31.58853 | -121.32674 | 11965 ft | 204 kts | 247° |
| 2026-04-26 09:58 | 31.58162 | -121.34127 | 11964 ft | 204 kts | 247° |
| 2026-04-26 09:58 | 31.57471 | -121.35582 | 11965 ft | 204 kts | 247° |
| 2026-04-26 09:59 | 31.56779 | -121.37036 | 11966 ft | 204 kts | 247° |
| 2026-04-26 09:59 | 31.56322 | -121.38000 | 11965 ft | 204 kts | 247° |
| 2026-04-26 09:59 | 31.55555 | -121.40003 | 11962 ft | 197 kts | 261° |
| 2026-04-26 09:59 | 31.55297 | -121.41575 | 11970 ft | 196 kts | 263° |
| 2026-04-26 10:00 | 31.55018 | -121.43146 | 11973 ft | 197 kts | 262° |
| 2026-04-26 10:00 | 31.54720 | -121.44715 | 11976 ft | 197 kts | 261° |
| 2026-04-26 10:00 | 31.54421 | -121.46286 | 11976 ft | 198 kts | 262° |
| 2026-04-26 10:00 | 31.54124 | -121.47860 | 11977 ft | 198 kts | 262° |
| 2026-04-26 10:01 | 31.53827 | -121.49435 | 11979 ft | 198 kts | 261° |
| 2026-04-26 10:01 | 31.53528 | -121.51013 | 11982 ft | 198 kts | 262° |
| 2026-04-26 10:01 | 31.53230 | -121.52592 | 11978 ft | 198 kts | 262° |
| 2026-04-26 10:01 | 31.52930 | -121.54170 | 11979 ft | 199 kts | 262° |
| 2026-04-26 10:02 | 31.52631 | -121.55750 | 11984 ft | 199 kts | 262° |
| 2026-04-26 10:02 | 31.52332 | -121.57332 | 11977 ft | 199 kts | 262° |
| 2026-04-26 10:02 | 31.52031 | -121.58914 | 11980 ft | 199 kts | 262° |
| 2026-04-26 10:02 | 31.51731 | -121.60498 | 11982 ft | 199 kts | 262° |
| 2026-04-26 10:03 | 31.51428 | -121.62086 | 11983 ft | 200 kts | 262° |
| 2026-04-26 10:03 | 31.51127 | -121.63676 | 11983 ft | 200 kts | 261° |
| 2026-04-26 10:03 | 31.50823 | -121.65268 | 11987 ft | 200 kts | 262° |
| 2026-04-26 10:03 | 31.50521 | -121.66860 | 11985 ft | 200 kts | 261° |
| 2026-04-26 10:04 | 31.50216 | -121.68453 | 11987 ft | 200 kts | 261° |
| 2026-04-26 10:04 | 31.49913 | -121.70050 | 11982 ft | 201 kts | 261° |
| 2026-04-26 10:04 | 31.49607 | -121.71648 | 11980 ft | 201 kts | 261° |
| 2026-04-26 10:04 | 31.49302 | -121.73249 | 11983 ft | 202 kts | 261° |
| 2026-04-26 10:05 | 31.48995 | -121.74851 | 11982 ft | 202 kts | 261° |
| 2026-04-26 10:05 | 31.48689 | -121.76455 | 11983 ft | 202 kts | 261° |
| 2026-04-26 10:05 | 31.48382 | -121.78059 | 11977 ft | 202 kts | 261° |
| 2026-04-26 10:05 | 31.48074 | -121.79663 | 11975 ft | 202 kts | 261° |
| 2026-04-26 10:06 | 31.47767 | -121.81268 | 11977 ft | 202 kts | 261° |
| 2026-04-26 10:06 | 31.47458 | -121.82876 | 11972 ft | 202 kts | 261° |
| 2026-04-26 10:06 | 31.47250 | -121.83961 | 11976 ft | 202 kts | 261° |
| 2026-04-26 10:06 | 31.46941 | -121.85568 | 11972 ft | 202 kts | 261° |
| 2026-04-26 10:07 | 31.46633 | -121.87176 | 11980 ft | 203 kts | 261° |
| 2026-04-26 10:07 | 31.46323 | -121.88786 | 11978 ft | 203 kts | 261° |
| 2026-04-26 10:07 | 31.46013 | -121.90398 | 11979 ft | 203 kts | 261° |
| 2026-04-26 10:07 | 31.45702 | -121.92010 | 11975 ft | 203 kts | 261° |
| 2026-04-26 10:08 | 31.45392 | -121.93623 | 11977 ft | 203 kts | 261° |
| 2026-04-26 10:08 | 31.45081 | -121.95236 | 11973 ft | 203 kts | 261° |
| 2026-04-26 10:08 | 31.44769 | -121.96850 | 11974 ft | 203 kts | 261° |
| 2026-04-26 10:08 | 31.44456 | -121.98467 | 11980 ft | 204 kts | 260° |
| 2026-04-26 10:09 | 31.44144 | -122.00085 | 11973 ft | 204 kts | 261° |
| 2026-04-26 10:09 | 31.43831 | -122.01704 | 11972 ft | 204 kts | 260° |
| 2026-04-26 10:09 | 31.43517 | -122.03324 | 11973 ft | 204 kts | 260° |
| 2026-04-26 10:09 | 31.43203 | -122.04948 | 11978 ft | 205 kts | 260° |
| 2026-04-26 10:10 | 31.42888 | -122.06573 | 11973 ft | 205 kts | 260° |
| 2026-04-26 10:10 | 31.42573 | -122.08199 | 11973 ft | 205 kts | 260° |
| 2026-04-26 10:10 | 31.42256 | -122.09827 | 11975 ft | 205 kts | 260° |
| 2026-04-26 10:10 | 31.41941 | -122.11454 | 11976 ft | 205 kts | 260° |
| 2026-04-26 10:11 | 31.41623 | -122.13085 | 11974 ft | 205 kts | 260° |
| 2026-04-26 10:11 | 31.41307 | -122.14713 | 11978 ft | 205 kts | 260° |
| 2026-04-26 10:11 | 31.40989 | -122.16343 | 11977 ft | 205 kts | 260° |
| 2026-04-26 10:11 | 31.40672 | -122.17975 | 11981 ft | 206 kts | 260° |
| 2026-04-26 10:12 | 31.40353 | -122.19610 | 11979 ft | 206 kts | 260° |
| 2026-04-26 10:12 | 31.40035 | -122.21242 | 11978 ft | 206 kts | 259° |
| 2026-04-26 10:12 | 31.39715 | -122.22878 | 11980 ft | 206 kts | 260° |
| 2026-04-26 10:12 | 31.39396 | -122.24514 | 11979 ft | 206 kts | 259° |
| 2026-04-26 10:13 | 31.39075 | -122.26152 | 11980 ft | 207 kts | 259° |
| 2026-04-26 10:13 | 31.38758 | -122.27778 | 11979 ft | 207 kts | 259° |
| 2026-04-26 10:13 | 31.38433 | -122.29431 | 11981 ft | 207 kts | 259° |
| 2026-04-26 10:13 | 31.38115 | -122.31060 | 11979 ft | 207 kts | 259° |
| 2026-04-26 10:14 | 31.37792 | -122.32704 | 11980 ft | 207 kts | 259° |
| 2026-04-26 10:14 | 31.37469 | -122.34351 | 11979 ft | 207 kts | 259° |
| 2026-04-26 10:14 | 31.37146 | -122.35997 | 11979 ft | 207 kts | 259° |
| 2026-04-26 10:14 | 31.36821 | -122.37650 | 11981 ft | 207 kts | 259° |
| 2026-04-26 10:15 | 31.36501 | -122.39278 | 11979 ft | 208 kts | 259° |
| 2026-04-26 10:15 | 31.36177 | -122.40928 | 11980 ft | 208 kts | 259° |
| 2026-04-26 10:15 | 31.35852 | -122.42576 | 11977 ft | 208 kts | 259° |
| 2026-04-26 10:15 | 31.35527 | -122.44225 | 11979 ft | 208 kts | 259° |
| 2026-04-26 10:16 | 31.35201 | -122.45875 | 11983 ft | 208 kts | 259° |
| 2026-04-26 10:16 | 31.34877 | -122.47525 | 11979 ft | 208 kts | 259° |
| 2026-04-26 10:16 | 31.34550 | -122.49176 | 11982 ft | 208 kts | 259° |
| 2026-04-26 10:16 | 31.34224 | -122.50829 | 11983 ft | 208 kts | 259° |
| 2026-04-26 10:17 | 31.33896 | -122.52481 | 11981 ft | 209 kts | 259° |
| 2026-04-26 10:17 | 31.33570 | -122.54134 | 11985 ft | 209 kts | 258° |
| 2026-04-26 10:17 | 31.33242 | -122.55786 | 11983 ft | 209 kts | 258° |
| 2026-04-26 10:17 | 31.32915 | -122.57440 | 11983 ft | 209 kts | 258° |
| 2026-04-26 10:18 | 31.32586 | -122.59094 | 11983 ft | 209 kts | 258° |
| 2026-04-26 10:18 | 31.32258 | -122.60750 | 11981 ft | 209 kts | 258° |
| 2026-04-26 10:18 | 31.31929 | -122.62406 | 11983 ft | 209 kts | 258° |
| 2026-04-26 10:18 | 31.31600 | -122.64061 | 11983 ft | 209 kts | 258° |
| 2026-04-26 10:19 | 31.31270 | -122.65721 | 11988 ft | 209 kts | 258° |
| 2026-04-26 10:19 | 31.30940 | -122.67378 | 11984 ft | 209 kts | 258° |
| 2026-04-26 10:19 | 31.30610 | -122.69035 | 11985 ft | 209 kts | 258° |
| 2026-04-26 10:19 | 31.30280 | -122.70692 | 11985 ft | 209 kts | 258° |
| 2026-04-26 10:20 | 31.29949 | -122.72351 | 11985 ft | 210 kts | 258° |
| 2026-04-26 10:20 | 31.29730 | -122.73449 | 11980 ft | 210 kts | 258° |
| 2026-04-26 10:20 | 31.29286 | -122.75670 | 11983 ft | 210 kts | 258° |
| 2026-04-26 10:20 | 31.28955 | -122.77330 | 11982 ft | 210 kts | 258° |
| 2026-04-26 10:21 | 31.28623 | -122.78988 | 11981 ft | 210 kts | 258° |
| 2026-04-26 10:21 | 31.28291 | -122.80645 | 11988 ft | 209 kts | 258° |
| 2026-04-26 10:21 | 31.27959 | -122.82302 | 11983 ft | 209 kts | 258° |
| 2026-04-26 10:21 | 31.27627 | -122.83960 | 11986 ft | 209 kts | 258° |
| 2026-04-26 10:22 | 31.27295 | -122.85614 | 11986 ft | 209 kts | 258° |
| 2026-04-26 10:22 | 31.26963 | -122.87272 | 11987 ft | 209 kts | 258° |
| 2026-04-26 10:22 | 31.26629 | -122.88929 | 11988 ft | 209 kts | 258° |
| 2026-04-26 10:22 | 31.26297 | -122.90586 | 11988 ft | 209 kts | 258° |
| 2026-04-26 10:23 | 31.25962 | -122.92245 | 11985 ft | 210 kts | 258° |
| 2026-04-26 10:23 | 31.25629 | -122.93904 | 11989 ft | 210 kts | 257° |
| 2026-04-26 10:23 | 31.25294 | -122.95562 | 11986 ft | 210 kts | 257° |
| 2026-04-26 10:23 | 31.24960 | -122.97220 | 11989 ft | 210 kts | 257° |
| 2026-04-26 10:24 | 31.24626 | -122.98879 | 11990 ft | 210 kts | 257° |
| 2026-04-26 10:24 | 31.24290 | -123.00539 | 11992 ft | 210 kts | 257° |
| 2026-04-26 10:24 | 31.23955 | -123.02200 | 11991 ft | 210 kts | 257° |
| 2026-04-26 10:24 | 31.23619 | -123.03858 | 11991 ft | 210 kts | 257° |
| 2026-04-26 10:25 | 31.23284 | -123.05519 | 11992 ft | 210 kts | 257° |
| 2026-04-26 10:25 | 31.22947 | -123.07180 | 11989 ft | 210 kts | 257° |
| 2026-04-26 10:25 | 31.22612 | -123.08838 | 11992 ft | 210 kts | 257° |
| 2026-04-26 10:25 | 31.22275 | -123.10501 | 11992 ft | 210 kts | 257° |
| 2026-04-26 10:26 | 31.21937 | -123.12162 | 11992 ft | 210 kts | 257° |
| 2026-04-26 10:26 | 31.21600 | -123.13823 | 11991 ft | 210 kts | 257° |
| 2026-04-26 10:26 | 31.21263 | -123.15481 | 11990 ft | 210 kts | 257° |
| 2026-04-26 10:26 | 31.20925 | -123.17146 | 11991 ft | 210 kts | 257° |
| 2026-04-26 10:27 | 31.20586 | -123.18810 | 11990 ft | 211 kts | 257° |
| 2026-04-26 10:27 | 31.20248 | -123.20473 | 11992 ft | 210 kts | 257° |
| 2026-04-26 10:27 | 31.19909 | -123.22137 | 11988 ft | 210 kts | 257° |
| 2026-04-26 10:27 | 31.19570 | -123.23801 | 11992 ft | 211 kts | 257° |
| 2026-04-26 10:28 | 31.19230 | -123.25464 | 11994 ft | 211 kts | 257° |
| 2026-04-26 10:28 | 31.18891 | -123.27127 | 11992 ft | 211 kts | 257° |
| 2026-04-26 10:28 | 31.18550 | -123.28790 | 11994 ft | 210 kts | 257° |
| 2026-04-26 10:28 | 31.18212 | -123.30450 | 11992 ft | 210 kts | 257° |
| 2026-04-26 10:29 | 31.17871 | -123.32113 | 11993 ft | 210 kts | 257° |
| 2026-04-26 10:29 | 31.17531 | -123.33776 | 11993 ft | 210 kts | 256° |
| 2026-04-26 10:29 | 31.17190 | -123.35438 | 11993 ft | 210 kts | 256° |
| 2026-04-26 10:29 | 31.16850 | -123.37099 | 11992 ft | 211 kts | 256° |
| 2026-04-26 10:30 | 31.16508 | -123.38761 | 11994 ft | 211 kts | 256° |
| 2026-04-26 10:30 | 31.16167 | -123.40425 | 11993 ft | 211 kts | 256° |
| 2026-04-26 10:30 | 31.15822 | -123.42101 | 11994 ft | 211 kts | 256° |
| 2026-04-26 10:30 | 31.15481 | -123.43762 | 11995 ft | 211 kts | 256° |
| 2026-04-26 10:31 | 31.15139 | -123.45423 | 11996 ft | 211 kts | 256° |
| 2026-04-26 10:31 | 31.14795 | -123.47094 | 11994 ft | 211 kts | 256° |
| 2026-04-26 10:31 | 31.14452 | -123.48759 | 11992 ft | 211 kts | 256° |
| 2026-04-26 10:31 | 31.14113 | -123.50404 | 11992 ft | 211 kts | 256° |
| 2026-04-26 10:32 | 31.13769 | -123.52069 | 11994 ft | 211 kts | 256° |
| 2026-04-26 10:32 | 31.13426 | -123.53735 | 11998 ft | 210 kts | 256° |
| 2026-04-26 10:32 | 31.13082 | -123.55396 | 11998 ft | 210 kts | 256° |
| 2026-04-26 10:32 | 31.12720 | -123.57058 | 11995 ft | 210 kts | 255° |
| 2026-04-26 10:33 | 31.12358 | -123.58705 | 12002 ft | 210 kts | 255° |
| 2026-04-26 10:33 | 31.11995 | -123.60372 | 12003 ft | 210 kts | 255° |
| 2026-04-26 10:33 | 31.11637 | -123.62020 | 11996 ft | 210 kts | 255° |
| 2026-04-26 10:33 | 31.11276 | -123.63678 | 12002 ft | 210 kts | 255° |
| 2026-04-26 10:34 | 31.10918 | -123.65323 | 12000 ft | 211 kts | 255° |
| 2026-04-26 10:34 | 31.10555 | -123.66987 | 11996 ft | 211 kts | 255° |
| 2026-04-26 10:34 | 31.10198 | -123.68625 | 11997 ft | 210 kts | 255° |
| 2026-04-26 10:34 | 31.09834 | -123.70294 | 12001 ft | 210 kts | 255° |
| 2026-04-26 10:35 | 31.09471 | -123.71954 | 12006 ft | 211 kts | 255° |
| 2026-04-26 10:35 | 31.09113 | -123.73595 | 12008 ft | 210 kts | 255° |
| 2026-04-26 10:35 | 31.08748 | -123.75265 | 12000 ft | 210 kts | 255° |
| 2026-04-26 10:35 | 31.08387 | -123.76916 | 11999 ft | 210 kts | 255° |
| 2026-04-26 10:36 | 31.08029 | -123.78550 | 11999 ft | 210 kts | 255° |
| 2026-04-26 10:36 | 31.07661 | -123.80224 | 11999 ft | 210 kts | 255° |
| 2026-04-26 10:36 | 31.07301 | -123.81873 | 12003 ft | 210 kts | 255° |
| 2026-04-26 10:36 | 31.06938 | -123.83523 | 12008 ft | 210 kts | 255° |
| 2026-04-26 10:37 | 31.06579 | -123.85156 | 12005 ft | 210 kts | 255° |
| 2026-04-26 10:37 | 31.06214 | -123.86823 | 12005 ft | 210 kts | 254° |
| 2026-04-26 10:37 | 31.05853 | -123.88461 | 11998 ft | 210 kts | 255° |
| 2026-04-26 10:37 | 31.05489 | -123.90121 | 12002 ft | 210 kts | 255° |
| 2026-04-26 10:38 | 31.05126 | -123.91770 | 12007 ft | 210 kts | 255° |
| 2026-04-26 10:38 | 31.04763 | -123.93416 | 12007 ft | 210 kts | 254° |
| 2026-04-26 10:38 | 31.04396 | -123.95083 | 12005 ft | 210 kts | 254° |
| 2026-04-26 10:38 | 31.04033 | -123.96727 | 12002 ft | 210 kts | 254° |
| 2026-04-26 10:39 | 31.03667 | -123.98387 | 12007 ft | 210 kts | 254° |
| 2026-04-26 10:39 | 31.03303 | -124.00035 | 12003 ft | 210 kts | 254° |
| 2026-04-26 10:39 | 31.02941 | -124.01674 | 12002 ft | 210 kts | 254° |
| 2026-04-26 10:39 | 31.02576 | -124.03328 | 12011 ft | 210 kts | 254° |
| 2026-04-26 10:40 | 31.02206 | -124.04995 | 12003 ft | 210 kts | 254° |
| 2026-04-26 10:40 | 31.01846 | -124.06623 | 11999 ft | 210 kts | 254° |
| 2026-04-26 10:40 | 31.01478 | -124.08285 | 11997 ft | 210 kts | 254° |
| 2026-04-26 10:40 | 31.01115 | -124.09925 | 11998 ft | 210 kts | 254° |
| 2026-04-26 10:41 | 31.00745 | -124.11589 | 12004 ft | 210 kts | 254° |
| 2026-04-26 10:41 | 31.00382 | -124.13227 | 12002 ft | 210 kts | 254° |
| 2026-04-26 10:41 | 31.00015 | -124.14875 | 12008 ft | 210 kts | 254° |
| 2026-04-26 10:41 | 30.99649 | -124.16523 | 12002 ft | 210 kts | 254° |
| 2026-04-26 10:42 | 30.99284 | -124.18168 | 12000 ft | 210 kts | 254° |
| 2026-04-26 10:42 | 30.99040 | -124.19266 | 11998 ft | 210 kts | 254° |
| 2026-04-26 10:42 | 30.98550 | -124.21466 | 11997 ft | 210 kts | 254° |
| 2026-04-26 10:42 | 30.98182 | -124.23117 | 12005 ft | 210 kts | 254° |
| 2026-04-26 10:43 | 30.97813 | -124.24768 | 11999 ft | 210 kts | 254° |
| 2026-04-26 10:43 | 30.97444 | -124.26427 | 11999 ft | 210 kts | 254° |
| 2026-04-26 10:43 | 30.97075 | -124.28074 | 12009 ft | 210 kts | 254° |
| 2026-04-26 10:43 | 30.96706 | -124.29728 | 12000 ft | 210 kts | 254° |
| 2026-04-26 10:44 | 30.96464 | -124.30810 | 11999 ft | 211 kts | 254° |
| 2026-04-26 10:44 | 30.95972 | -124.33010 | 11995 ft | 211 kts | 254° |
| 2026-04-26 10:44 | 30.95725 | -124.34114 | 12005 ft | 211 kts | 254° |
| 2026-04-26 10:44 | 30.95354 | -124.35772 | 11998 ft | 211 kts | 254° |
| 2026-04-26 10:45 | 30.94984 | -124.37422 | 11996 ft | 211 kts | 254° |
| 2026-04-26 10:45 | 30.94613 | -124.39077 | 12001 ft | 211 kts | 254° |
| 2026-04-26 10:45 | 30.94241 | -124.40732 | 12008 ft | 211 kts | 254° |
| 2026-04-26 10:45 | 30.93873 | -124.42374 | 12001 ft | 211 kts | 254° |
| 2026-04-26 10:46 | 30.93499 | -124.44039 | 12000 ft | 211 kts | 254° |
| 2026-04-26 10:46 | 30.93132 | -124.45673 | 12010 ft | 211 kts | 254° |
| 2026-04-26 10:46 | 30.92757 | -124.47337 | 12007 ft | 211 kts | 254° |
| 2026-04-26 10:46 | 30.92389 | -124.48975 | 12006 ft | 211 kts | 254° |
| 2026-04-26 10:47 | 30.92016 | -124.50629 | 12000 ft | 211 kts | 254° |
| 2026-04-26 10:47 | 30.91640 | -124.52298 | 12002 ft | 211 kts | 254° |
| 2026-04-26 10:47 | 30.91272 | -124.53930 | 12003 ft | 211 kts | 253° |
| 2026-04-26 10:47 | 30.90899 | -124.55582 | 12010 ft | 211 kts | 253° |
| 2026-04-26 10:48 | 30.90527 | -124.57230 | 12008 ft | 211 kts | 254° |
| 2026-04-26 10:48 | 30.90154 | -124.58880 | 12004 ft | 211 kts | 253° |
| 2026-04-26 10:48 | 30.89780 | -124.60530 | 12002 ft | 211 kts | 253° |
| 2026-04-26 10:48 | 30.89408 | -124.62182 | 12001 ft | 211 kts | 254° |
| 2026-04-26 10:49 | 30.89033 | -124.63833 | 12000 ft | 211 kts | 253° |
| 2026-04-26 10:49 | 30.88660 | -124.65484 | 12002 ft | 211 kts | 253° |
| 2026-04-26 10:49 | 30.88285 | -124.67135 | 11998 ft | 211 kts | 253° |
| 2026-04-26 10:49 | 30.87910 | -124.68787 | 11999 ft | 211 kts | 253° |
| 2026-04-26 10:50 | 30.87535 | -124.70440 | 12000 ft | 211 kts | 253° |
| 2026-04-26 10:50 | 30.87160 | -124.72093 | 12001 ft | 211 kts | 253° |
| 2026-04-26 10:50 | 30.86783 | -124.73750 | 12011 ft | 211 kts | 253° |
| 2026-04-26 10:50 | 30.86407 | -124.75404 | 12009 ft | 212 kts | 253° |
| 2026-04-26 10:51 | 30.86030 | -124.77061 | 12002 ft | 212 kts | 253° |
| 2026-04-26 10:51 | 30.85276 | -124.80370 | 12004 ft | 212 kts | 253° |
| 2026-04-26 10:51 | 30.84899 | -124.82027 | 12012 ft | 212 kts | 253° |
| 2026-04-26 10:52 | 30.84523 | -124.83676 | 12008 ft | 209 kts | 254° |
| 2026-04-26 10:52 | 30.84151 | -124.85305 | 12005 ft | 209 kts | 253° |
| 2026-04-26 10:52 | 30.83772 | -124.86958 | 12019 ft | 214 kts | 253° |
| 2026-04-26 10:52 | 30.83386 | -124.88650 | 12019 ft | 219 kts | 254° |
| 2026-04-26 10:53 | 30.82992 | -124.90371 | 12023 ft | 222 kts | 253° |
| 2026-04-26 10:53 | 30.82594 | -124.92116 | 12025 ft | 225 kts | 253° |
| 2026-04-26 10:53 | 30.82189 | -124.93879 | 12024 ft | 225 kts | 253° |
| 2026-04-26 10:54 | 30.81390 | -124.97368 | 12008 ft | 222 kts | 253° |
| 2026-04-26 10:54 | 30.80988 | -124.99123 | 12001 ft | 221 kts | 253° |
| 2026-04-26 10:54 | 30.80597 | -125.00821 | 12004 ft | 220 kts | 253° |
| 2026-04-26 10:54 | 30.80204 | -125.02536 | 12006 ft | 219 kts | 253° |
| 2026-04-26 10:55 | 30.79810 | -125.04246 | 12003 ft | 218 kts | 253° |
| 2026-04-26 10:55 | 30.79418 | -125.05952 | 11999 ft | 218 kts | 253° |
| 2026-04-26 10:55 | 30.79026 | -125.07650 | 12004 ft | 217 kts | 253° |
| 2026-04-26 10:55 | 30.78637 | -125.09341 | 12000 ft | 216 kts | 253° |
| 2026-04-26 10:56 | 30.78247 | -125.11030 | 12003 ft | 216 kts | 253° |
| 2026-04-26 10:56 | 30.77859 | -125.12715 | 12000 ft | 216 kts | 253° |
| 2026-04-26 10:56 | 30.77470 | -125.14397 | 12001 ft | 215 kts | 253° |
| 2026-04-26 10:56 | 30.77082 | -125.16079 | 11999 ft | 215 kts | 253° |
| 2026-04-26 10:57 | 30.76694 | -125.17756 | 12004 ft | 215 kts | 253° |
| 2026-04-26 10:57 | 30.76308 | -125.19430 | 12003 ft | 215 kts | 253° |
| 2026-04-26 10:57 | 30.75919 | -125.21105 | 12004 ft | 214 kts | 253° |
| 2026-04-26 10:57 | 30.75533 | -125.22778 | 12001 ft | 214 kts | 253° |
| 2026-04-26 10:58 | 30.75144 | -125.24451 | 12003 ft | 214 kts | 253° |
| 2026-04-26 10:58 | 30.74758 | -125.26123 | 12009 ft | 214 kts | 253° |
| 2026-04-26 10:58 | 30.74369 | -125.27793 | 12006 ft | 214 kts | 253° |
| 2026-04-26 10:58 | 30.73982 | -125.29461 | 12007 ft | 214 kts | 253° |
| 2026-04-26 10:59 | 30.73594 | -125.31133 | 12010 ft | 214 kts | 253° |
| 2026-04-26 10:59 | 30.73207 | -125.32800 | 12008 ft | 214 kts | 253° |
| 2026-04-26 10:59 | 30.72818 | -125.34468 | 12007 ft | 214 kts | 253° |
| 2026-04-26 10:59 | 30.72431 | -125.36135 | 12001 ft | 214 kts | 253° |
| 2026-04-26 11:00 | 30.72042 | -125.37800 | 12005 ft | 213 kts | 253° |
| 2026-04-26 11:00 | 30.71655 | -125.39463 | 12007 ft | 213 kts | 253° |
| 2026-04-26 11:00 | 30.71267 | -125.41124 | 12008 ft | 213 kts | 253° |
| 2026-04-26 11:00 | 30.70880 | -125.42789 | 12009 ft | 213 kts | 253° |
| 2026-04-26 11:01 | 30.70491 | -125.44452 | 12012 ft | 213 kts | 253° |
| 2026-04-26 11:01 | 30.70104 | -125.46112 | 12007 ft | 213 kts | 253° |
| 2026-04-26 11:01 | 30.69715 | -125.47771 | 12010 ft | 213 kts | 253° |
| 2026-04-26 11:01 | 30.69327 | -125.49432 | 12010 ft | 213 kts | 253° |
| 2026-04-26 11:02 | 30.68938 | -125.51094 | 12012 ft | 213 kts | 253° |
| 2026-04-26 11:02 | 30.68550 | -125.52749 | 12012 ft | 213 kts | 253° |
| 2026-04-26 11:02 | 30.68162 | -125.54406 | 12009 ft | 212 kts | 253° |
| 2026-04-26 11:02 | 30.67774 | -125.56062 | 12010 ft | 212 kts | 253° |
| 2026-04-26 11:03 | 30.67385 | -125.57719 | 12011 ft | 212 kts | 253° |
| 2026-04-26 11:03 | 30.66997 | -125.59371 | 12019 ft | 212 kts | 253° |
| 2026-04-26 11:03 | 30.66609 | -125.61025 | 12016 ft | 212 kts | 253° |
| 2026-04-26 11:03 | 30.66220 | -125.62678 | 12017 ft | 212 kts | 253° |
| 2026-04-26 11:04 | 30.65832 | -125.64330 | 12016 ft | 212 kts | 253° |
| 2026-04-26 11:04 | 30.65442 | -125.65981 | 12020 ft | 212 kts | 254° |
| 2026-04-26 11:04 | 30.65055 | -125.67631 | 12018 ft | 212 kts | 254° |
| 2026-04-26 11:04 | 30.64666 | -125.69278 | 12019 ft | 212 kts | 254° |
| 2026-04-26 11:05 | 30.64277 | -125.70929 | 12022 ft | 212 kts | 254° |
| 2026-04-26 11:05 | 30.63888 | -125.72576 | 12020 ft | 212 kts | 254° |
| 2026-04-26 11:05 | 30.63500 | -125.74225 | 12017 ft | 212 kts | 254° |
| 2026-04-26 11:05 | 30.63109 | -125.75873 | 12015 ft | 212 kts | 254° |
| 2026-04-26 11:06 | 30.62720 | -125.77521 | 12013 ft | 212 kts | 254° |
| 2026-04-26 11:06 | 30.62330 | -125.79167 | 12016 ft | 212 kts | 254° |
| 2026-04-26 11:06 | 30.61940 | -125.80819 | 12010 ft | 212 kts | 254° |
| 2026-04-26 11:06 | 30.61550 | -125.82464 | 12010 ft | 212 kts | 254° |
| 2026-04-26 11:07 | 30.61159 | -125.84114 | 12009 ft | 212 kts | 254° |
| 2026-04-26 11:07 | 30.60768 | -125.85763 | 12011 ft | 212 kts | 254° |
| 2026-04-26 11:07 | 30.60378 | -125.87412 | 12021 ft | 212 kts | 254° |
| 2026-04-26 11:07 | 30.59986 | -125.89060 | 12012 ft | 212 kts | 254° |
| 2026-04-26 11:08 | 30.59594 | -125.90710 | 12012 ft | 212 kts | 254° |
| 2026-04-26 11:08 | 30.59201 | -125.92360 | 12013 ft | 212 kts | 254° |
| 2026-04-26 11:08 | 30.58809 | -125.94012 | 12021 ft | 212 kts | 254° |
| 2026-04-26 11:08 | 30.58416 | -125.95661 | 12021 ft | 212 kts | 254° |
| 2026-04-26 11:09 | 30.58024 | -125.97309 | 12014 ft | 212 kts | 254° |
| 2026-04-26 11:09 | 30.57631 | -125.98959 | 12012 ft | 212 kts | 254° |
| 2026-04-26 11:09 | 30.57235 | -126.00619 | 12015 ft | 212 kts | 254° |
| 2026-04-26 11:09 | 30.56845 | -126.02253 | 12013 ft | 212 kts | 254° |
| 2026-04-26 11:10 | 30.56450 | -126.03908 | 12012 ft | 212 kts | 254° |
| 2026-04-26 11:10 | 30.56057 | -126.05555 | 12020 ft | 212 kts | 255° |
| 2026-04-26 11:10 | 30.55667 | -126.07190 | 12022 ft | 212 kts | 254° |
| 2026-04-26 11:10 | 30.55270 | -126.08843 | 12016 ft | 212 kts | 254° |
| 2026-04-26 11:11 | 30.54877 | -126.10492 | 12025 ft | 213 kts | 254° |
| 2026-04-26 11:11 | 30.54478 | -126.12153 | 12018 ft | 213 kts | 255° |
| 2026-04-26 11:11 | 30.54084 | -126.13803 | 12022 ft | 213 kts | 254° |
| 2026-04-26 11:11 | 30.53685 | -126.15465 | 12019 ft | 213 kts | 255° |
| 2026-04-26 11:12 | 30.53286 | -126.17130 | 12018 ft | 213 kts | 254° |
| 2026-04-26 11:12 | 30.52891 | -126.18770 | 12022 ft | 213 kts | 255° |
| 2026-04-26 11:12 | 30.52493 | -126.20433 | 12014 ft | 213 kts | 255° |
| 2026-04-26 11:12 | 30.52093 | -126.22095 | 12012 ft | 213 kts | 255° |
| 2026-04-26 11:13 | 30.51695 | -126.23750 | 12014 ft | 213 kts | 255° |
| 2026-04-26 11:13 | 30.51302 | -126.25384 | 12014 ft | 213 kts | 255° |
| 2026-04-26 11:13 | 30.50903 | -126.27041 | 12020 ft | 213 kts | 256° |
| 2026-04-26 11:13 | 30.50507 | -126.28687 | 12015 ft | 213 kts | 256° |
| 2026-04-26 11:14 | 30.50104 | -126.30358 | 12017 ft | 213 kts | 256° |
| 2026-04-26 11:14 | 30.49706 | -126.32008 | 12021 ft | 214 kts | 256° |
| 2026-04-26 11:14 | 30.49301 | -126.33686 | 12021 ft | 214 kts | 256° |
| 2026-04-26 11:14 | 30.49037 | -126.34781 | 12020 ft | 214 kts | 256° |
| 2026-04-26 11:15 | 30.48498 | -126.37007 | 12028 ft | 214 kts | 256° |
| 2026-04-26 11:15 | 30.48102 | -126.38650 | 12022 ft | 214 kts | 256° |
| 2026-04-26 11:15 | 30.47695 | -126.40328 | 12025 ft | 214 kts | 256° |
| 2026-04-26 11:15 | 30.47292 | -126.41997 | 12028 ft | 215 kts | 256° |
| 2026-04-26 11:16 | 30.46890 | -126.43654 | 12027 ft | 215 kts | 256° |
| 2026-04-26 11:16 | 30.46486 | -126.45327 | 12028 ft | 215 kts | 256° |
| 2026-04-26 11:16 | 30.46080 | -126.46993 | 12031 ft | 215 kts | 256° |
| 2026-04-26 11:16 | 30.45680 | -126.48648 | 12025 ft | 215 kts | 256° |
| 2026-04-26 11:17 | 30.45272 | -126.50323 | 12033 ft | 215 kts | 256° |
| 2026-04-26 11:17 | 30.44867 | -126.51995 | 12029 ft | 215 kts | 256° |
| 2026-04-26 11:17 | 30.44465 | -126.53645 | 12028 ft | 215 kts | 256° |
| 2026-04-26 11:17 | 30.44058 | -126.55321 | 12029 ft | 215 kts | 256° |
| 2026-04-26 11:18 | 30.43649 | -126.57000 | 12035 ft | 215 kts | 256° |
| 2026-04-26 11:18 | 30.43246 | -126.58656 | 12029 ft | 215 kts | 256° |
| 2026-04-26 11:18 | 30.42833 | -126.60345 | 12028 ft | 216 kts | 256° |
| 2026-04-26 11:18 | 30.42432 | -126.61997 | 12028 ft | 216 kts | 256° |
| 2026-04-26 11:19 | 30.42022 | -126.63674 | 12037 ft | 216 kts | 256° |
| 2026-04-26 11:19 | 30.41611 | -126.65360 | 12032 ft | 216 kts | 256° |
| 2026-04-26 11:19 | 30.41204 | -126.67020 | 12033 ft | 216 kts | 256° |
| 2026-04-26 11:19 | 30.40793 | -126.68708 | 12034 ft | 216 kts | 256° |
| 2026-04-26 11:20 | 30.40382 | -126.70382 | 12031 ft | 216 kts | 256° |
| 2026-04-26 11:20 | 30.40114 | -126.71481 | 12028 ft | 216 kts | 256° |
| 2026-04-26 11:20 | 30.39564 | -126.73726 | 12029 ft | 216 kts | 256° |
| 2026-04-26 11:20 | 30.39157 | -126.75393 | 12034 ft | 216 kts | 256° |
| 2026-04-26 11:21 | 30.38745 | -126.77068 | 12027 ft | 216 kts | 256° |
| 2026-04-26 11:21 | 30.38339 | -126.78725 | 12031 ft | 216 kts | 256° |
| 2026-04-26 11:21 | 30.37927 | -126.80399 | 12030 ft | 216 kts | 256° |
| 2026-04-26 11:21 | 30.37514 | -126.82087 | 12032 ft | 216 kts | 256° |
| 2026-04-26 11:22 | 30.37101 | -126.83764 | 12029 ft | 216 kts | 256° |
| 2026-04-26 11:22 | 30.36694 | -126.85423 | 12032 ft | 216 kts | 256° |
| 2026-04-26 11:22 | 30.36419 | -126.86538 | 12032 ft | 216 kts | 256° |
| 2026-04-26 11:22 | 30.35869 | -126.88773 | 12026 ft | 216 kts | 256° |
| 2026-04-26 11:23 | 30.35594 | -126.89890 | 12025 ft | 216 kts | 256° |
| 2026-04-26 11:23 | 30.35180 | -126.91566 | 12029 ft | 216 kts | 256° |
| 2026-04-26 11:23 | 30.34768 | -126.93241 | 12026 ft | 216 kts | 256° |
| 2026-04-26 11:23 | 30.34354 | -126.94915 | 12028 ft | 216 kts | 256° |
| 2026-04-26 11:24 | 30.33945 | -126.96577 | 12031 ft | 216 kts | 256° |
| 2026-04-26 11:24 | 30.33531 | -126.98248 | 12030 ft | 216 kts | 256° |
| 2026-04-26 11:24 | 30.33118 | -126.99922 | 12027 ft | 216 kts | 256° |
| 2026-04-26 11:24 | 30.32705 | -127.01589 | 12031 ft | 216 kts | 256° |
| 2026-04-26 11:25 | 30.32296 | -127.03246 | 12029 ft | 216 kts | 256° |
| 2026-04-26 11:25 | 30.31877 | -127.04934 | 12023 ft | 216 kts | 256° |
| 2026-04-26 11:25 | 30.31464 | -127.06603 | 12026 ft | 216 kts | 256° |
| 2026-04-26 11:25 | 30.31050 | -127.08269 | 12031 ft | 216 kts | 256° |
| 2026-04-26 11:26 | 30.30638 | -127.09937 | 12025 ft | 216 kts | 256° |
| 2026-04-26 11:26 | 30.30225 | -127.11594 | 12032 ft | 216 kts | 256° |
| 2026-04-26 11:26 | 30.29805 | -127.13288 | 12025 ft | 216 kts | 256° |
| 2026-04-26 11:26 | 30.29390 | -127.14956 | 12031 ft | 216 kts | 256° |
| 2026-04-26 11:27 | 30.28977 | -127.16620 | 12031 ft | 216 kts | 256° |
| 2026-04-26 11:27 | 30.28562 | -127.18282 | 12027 ft | 216 kts | 256° |
| 2026-04-26 11:27 | 30.28144 | -127.19966 | 12028 ft | 216 kts | 256° |
| 2026-04-26 11:27 | 30.27732 | -127.21619 | 12030 ft | 216 kts | 256° |
| 2026-04-26 11:28 | 30.27314 | -127.23301 | 12029 ft | 216 kts | 256° |
| 2026-04-26 11:28 | 30.26894 | -127.24977 | 12029 ft | 216 kts | 256° |
| 2026-04-26 11:28 | 30.26482 | -127.26632 | 12032 ft | 216 kts | 256° |
| 2026-04-26 11:28 | 30.26061 | -127.28315 | 12030 ft | 216 kts | 256° |
| 2026-04-26 11:29 | 30.25647 | -127.29976 | 12035 ft | 216 kts | 256° |
| 2026-04-26 11:29 | 30.25229 | -127.31646 | 12034 ft | 216 kts | 256° |
| 2026-04-26 11:29 | 30.24812 | -127.33314 | 12032 ft | 216 kts | 256° |
| 2026-04-26 11:29 | 30.24396 | -127.34971 | 12033 ft | 216 kts | 256° |
| 2026-04-26 11:30 | 30.23978 | -127.36648 | 12035 ft | 216 kts | 256° |
| 2026-04-26 11:30 | 30.23701 | -127.37750 | 12033 ft | 216 kts | 256° |
| 2026-04-26 11:30 | 30.23143 | -127.39976 | 12037 ft | 216 kts | 256° |
| 2026-04-26 11:30 | 30.22721 | -127.41656 | 12027 ft | 216 kts | 256° |
| 2026-04-26 11:31 | 30.22303 | -127.43325 | 12029 ft | 216 kts | 256° |
| 2026-04-26 11:31 | 30.21887 | -127.44976 | 12029 ft | 216 kts | 256° |
| 2026-04-26 11:31 | 30.21471 | -127.46638 | 12029 ft | 216 kts | 256° |
| 2026-04-26 11:31 | 30.21047 | -127.48317 | 12025 ft | 216 kts | 256° |
| 2026-04-26 11:32 | 30.20628 | -127.49985 | 12029 ft | 216 kts | 256° |
| 2026-04-26 11:32 | 30.20214 | -127.51630 | 12025 ft | 216 kts | 256° |
| 2026-04-26 11:32 | 30.19797 | -127.53287 | 12028 ft | 216 kts | 256° |
| 2026-04-26 11:32 | 30.19373 | -127.54967 | 12028 ft | 216 kts | 256° |
| 2026-04-26 11:33 | 30.18955 | -127.56623 | 12033 ft | 216 kts | 256° |
| 2026-04-26 11:33 | 30.18535 | -127.58286 | 12030 ft | 216 kts | 256° |
| 2026-04-26 11:33 | 30.18116 | -127.59949 | 12030 ft | 215 kts | 256° |
| 2026-04-26 11:33 | 30.17695 | -127.61611 | 12029 ft | 216 kts | 256° |
| 2026-04-26 11:34 | 30.17272 | -127.63288 | 12033 ft | 216 kts | 256° |
| 2026-04-26 11:34 | 30.16851 | -127.64951 | 12035 ft | 216 kts | 256° |
| 2026-04-26 11:34 | 30.16436 | -127.66593 | 12034 ft | 216 kts | 256° |
| 2026-04-26 11:34 | 30.16015 | -127.68256 | 12032 ft | 216 kts | 256° |
| 2026-04-26 11:35 | 30.15589 | -127.69932 | 12033 ft | 216 kts | 256° |
| 2026-04-26 11:35 | 30.15167 | -127.71601 | 12033 ft | 216 kts | 256° |
| 2026-04-26 11:35 | 30.14744 | -127.73269 | 12028 ft | 216 kts | 256° |
| 2026-04-26 11:35 | 30.14327 | -127.74913 | 12029 ft | 216 kts | 256° |
| 2026-04-26 11:36 | 30.13900 | -127.76590 | 12031 ft | 216 kts | 256° |
| 2026-04-26 11:36 | 30.13481 | -127.78240 | 12035 ft | 216 kts | 256° |
| 2026-04-26 11:36 | 30.13057 | -127.79905 | 12029 ft | 216 kts | 256° |
| 2026-04-26 11:36 | 30.12634 | -127.81571 | 12033 ft | 216 kts | 256° |
| 2026-04-26 11:37 | 30.12207 | -127.83247 | 12031 ft | 216 kts | 256° |
| 2026-04-26 11:37 | 30.11784 | -127.84910 | 12036 ft | 216 kts | 256° |
| 2026-04-26 11:37 | 30.11364 | -127.86551 | 12037 ft | 216 kts | 256° |
| 2026-04-26 11:37 | 30.10938 | -127.88229 | 12041 ft | 216 kts | 256° |
| 2026-04-26 11:38 | 30.10515 | -127.89883 | 12034 ft | 216 kts | 256° |
| 2026-04-26 11:38 | 30.10088 | -127.91558 | 12033 ft | 216 kts | 256° |
| 2026-04-26 11:38 | 30.09664 | -127.93213 | 12033 ft | 216 kts | 256° |
| 2026-04-26 11:38 | 30.09242 | -127.94867 | 12030 ft | 216 kts | 256° |
| 2026-04-26 11:39 | 30.08813 | -127.96542 | 12030 ft | 216 kts | 256° |
| 2026-04-26 11:39 | 30.08390 | -127.98200 | 12035 ft | 216 kts | 256° |
| 2026-04-26 11:39 | 30.07964 | -127.99858 | 12030 ft | 216 kts | 256° |
| 2026-04-26 11:39 | 30.07540 | -128.01516 | 12032 ft | 216 kts | 256° |
| 2026-04-26 11:40 | 30.07112 | -128.03184 | 12032 ft | 215 kts | 256° |
| 2026-04-26 11:40 | 30.06687 | -128.04842 | 12035 ft | 215 kts | 256° |
| 2026-04-26 11:40 | 30.06265 | -128.06487 | 12030 ft | 215 kts | 256° |
| 2026-04-26 11:40 | 30.05837 | -128.08152 | 12032 ft | 215 kts | 256° |
| 2026-04-26 11:41 | 30.05413 | -128.09805 | 12038 ft | 215 kts | 256° |
| 2026-04-26 11:42 | 30.02431 | -128.21382 | 12035 ft | 215 kts | 256° |
| 2026-04-26 11:43 | 30.02002 | -128.23045 | 12036 ft | 215 kts | 256° |
| 2026-04-26 11:43 | 30.01577 | -128.24689 | 12032 ft | 215 kts | 256° |
| 2026-04-26 11:43 | 30.01153 | -128.26332 | 12035 ft | 215 kts | 256° |
| 2026-04-26 11:43 | 30.00723 | -128.27993 | 12037 ft | 215 kts | 256° |
| 2026-04-26 11:44 | 30.00298 | -128.29636 | 12035 ft | 215 kts | 256° |
| 2026-04-26 11:44 | 29.99868 | -128.31297 | 12037 ft | 215 kts | 256° |
| 2026-04-26 11:44 | 29.99439 | -128.32955 | 12037 ft | 215 kts | 256° |
| 2026-04-26 11:44 | 29.99010 | -128.34610 | 12037 ft | 215 kts | 256° |
| 2026-04-26 11:45 | 29.98584 | -128.36253 | 12038 ft | 215 kts | 256° |
| 2026-04-26 11:45 | 29.98155 | -128.37903 | 12038 ft | 215 kts | 256° |
| 2026-04-26 11:45 | 29.97727 | -128.39557 | 12039 ft | 215 kts | 256° |
| 2026-04-26 11:45 | 29.97300 | -128.41196 | 12034 ft | 215 kts | 256° |
| 2026-04-26 11:46 | 29.96870 | -128.42855 | 12037 ft | 215 kts | 256° |
| 2026-04-26 11:46 | 29.96440 | -128.44505 | 12035 ft | 215 kts | 256° |
| 2026-04-26 11:46 | 29.96007 | -128.46173 | 12036 ft | 215 kts | 256° |
| 2026-04-26 11:46 | 29.95580 | -128.47810 | 12036 ft | 215 kts | 256° |
| 2026-04-26 11:47 | 29.95151 | -128.49461 | 12036 ft | 215 kts | 256° |
| 2026-04-26 11:47 | 29.94719 | -128.51116 | 12037 ft | 215 kts | 256° |
| 2026-04-26 11:47 | 29.94286 | -128.52776 | 12037 ft | 215 kts | 256° |
| 2026-04-26 11:47 | 29.93857 | -128.54419 | 12037 ft | 215 kts | 256° |
| 2026-04-26 11:48 | 29.93424 | -128.56082 | 12039 ft | 215 kts | 256° |
| 2026-04-26 11:48 | 29.92989 | -128.57744 | 12040 ft | 216 kts | 256° |
| 2026-04-26 11:48 | 29.92560 | -128.59387 | 12038 ft | 216 kts | 256° |
| 2026-04-26 11:48 | 29.92124 | -128.61053 | 12037 ft | 216 kts | 256° |
| 2026-04-26 11:49 | 29.91695 | -128.62692 | 12038 ft | 216 kts | 256° |
| 2026-04-26 11:49 | 29.91257 | -128.64366 | 12039 ft | 216 kts | 256° |
| 2026-04-26 11:49 | 29.90828 | -128.66004 | 12040 ft | 216 kts | 256° |
| 2026-04-26 11:49 | 29.90395 | -128.67657 | 12040 ft | 216 kts | 256° |
| 2026-04-26 11:50 | 29.89954 | -128.69336 | 12043 ft | 216 kts | 256° |
| 2026-04-26 11:50 | 29.89524 | -128.70976 | 12040 ft | 216 kts | 256° |
| 2026-04-26 11:50 | 29.89089 | -128.72636 | 12041 ft | 216 kts | 256° |
| 2026-04-26 11:50 | 29.88654 | -128.74288 | 12042 ft | 216 kts | 256° |
| 2026-04-26 11:51 | 29.88221 | -128.75937 | 12042 ft | 216 kts | 256° |
| 2026-04-26 11:51 | 29.87784 | -128.77598 | 12040 ft | 216 kts | 256° |
| 2026-04-26 11:51 | 29.87349 | -128.79255 | 12042 ft | 216 kts | 256° |
| 2026-04-26 11:51 | 29.86911 | -128.80912 | 12042 ft | 216 kts | 256° |
| 2026-04-26 11:52 | 29.86477 | -128.82565 | 12041 ft | 216 kts | 256° |
| 2026-04-26 11:52 | 29.86185 | -128.83670 | 12042 ft | 216 kts | 256° |
| 2026-04-26 11:52 | 29.85602 | -128.85879 | 12041 ft | 216 kts | 256° |
| 2026-04-26 11:52 | 29.85165 | -128.87539 | 12046 ft | 216 kts | 256° |
| 2026-04-26 11:53 | 29.84728 | -128.89191 | 12044 ft | 216 kts | 256° |
| 2026-04-26 11:53 | 29.84291 | -128.90848 | 12042 ft | 216 kts | 256° |
| 2026-04-26 11:53 | 29.83854 | -128.92500 | 12042 ft | 216 kts | 256° |
| 2026-04-26 11:54 | 29.82971 | -128.95835 | 12042 ft | 216 kts | 256° |
| 2026-04-26 11:54 | 29.82537 | -128.97479 | 12043 ft | 216 kts | 256° |
| 2026-04-26 11:54 | 29.82096 | -128.99140 | 12048 ft | 216 kts | 256° |
| 2026-04-26 11:54 | 29.81655 | -129.00806 | 12045 ft | 216 kts | 256° |
| 2026-04-26 11:55 | 29.81219 | -129.02447 | 12046 ft | 217 kts | 256° |
| 2026-04-26 11:55 | 29.80776 | -129.04119 | 12045 ft | 217 kts | 256° |
| 2026-04-26 11:55 | 29.80335 | -129.05779 | 12046 ft | 217 kts | 256° |
| 2026-04-26 11:55 | 29.79896 | -129.07433 | 12047 ft | 217 kts | 256° |
| 2026-04-26 11:56 | 29.79452 | -129.09102 | 12047 ft | 217 kts | 256° |
| 2026-04-26 11:56 | 29.79014 | -129.10750 | 12047 ft | 217 kts | 256° |
| 2026-04-26 11:56 | 29.78571 | -129.12414 | 12044 ft | 217 kts | 256° |
| 2026-04-26 11:56 | 29.78125 | -129.14091 | 12046 ft | 217 kts | 256° |
| 2026-04-26 11:57 | 29.77686 | -129.15738 | 12047 ft | 217 kts | 256° |
| 2026-04-26 11:57 | 29.77242 | -129.17407 | 12045 ft | 217 kts | 256° |
| 2026-04-26 11:57 | 29.76796 | -129.19078 | 12049 ft | 217 kts | 256° |
| 2026-04-26 11:57 | 29.76356 | -129.20729 | 12047 ft | 217 kts | 256° |
| 2026-04-26 11:58 | 29.75913 | -129.22384 | 12050 ft | 217 kts | 256° |
| 2026-04-26 11:58 | 29.75465 | -129.24064 | 12048 ft | 218 kts | 256° |
| 2026-04-26 11:58 | 29.75018 | -129.25730 | 12045 ft | 218 kts | 256° |
| 2026-04-26 11:58 | 29.74574 | -129.27395 | 12048 ft | 218 kts | 256° |
| 2026-04-26 11:59 | 29.74128 | -129.29059 | 12051 ft | 218 kts | 256° |
| 2026-04-26 11:59 | 29.73684 | -129.30722 | 12049 ft | 218 kts | 256° |
| 2026-04-26 11:59 | 29.73237 | -129.32388 | 12051 ft | 218 kts | 256° |
| 2026-04-26 11:59 | 29.72791 | -129.34051 | 12051 ft | 218 kts | 256° |
| 2026-04-26 12:00 | 29.72345 | -129.35714 | 12050 ft | 218 kts | 256° |
| 2026-04-26 12:00 | 29.71900 | -129.37375 | 12053 ft | 217 kts | 256° |
| 2026-04-26 12:00 | 29.71453 | -129.39038 | 12051 ft | 217 kts | 256° |
| 2026-04-26 12:00 | 29.71007 | -129.40700 | 12051 ft | 217 kts | 256° |
| 2026-04-26 12:01 | 29.70560 | -129.42363 | 12051 ft | 217 kts | 256° |
| 2026-04-26 12:01 | 29.70264 | -129.43463 | 12057 ft | 217 kts | 256° |
| 2026-04-26 12:01 | 29.69817 | -129.45122 | 12056 ft | 217 kts | 256° |
| 2026-04-26 12:01 | 29.69371 | -129.46782 | 12053 ft | 217 kts | 256° |
| 2026-04-26 12:02 | 29.68924 | -129.48441 | 12051 ft | 217 kts | 256° |
| 2026-04-26 12:02 | 29.68481 | -129.50086 | 12139 ft | 213 kts | 257° |
| 2026-04-26 12:02 | 29.68045 | -129.51697 | 12255 ft | 209 kts | 257° |
| 2026-04-26 12:02 | 29.67621 | -129.53272 | 12360 ft | 205 kts | 257° |
| 2026-04-26 12:03 | 29.67202 | -129.54821 | 12458 ft | 201 kts | 257° |
| 2026-04-26 12:03 | 29.66793 | -129.56341 | 12572 ft | 197 kts | 257° |
| 2026-04-26 12:03 | 29.66387 | -129.57838 | 12677 ft | 194 kts | 257° |
| 2026-04-26 12:03 | 29.65990 | -129.59311 | 12788 ft | 192 kts | 257° |
| 2026-04-26 12:04 | 29.65596 | -129.60765 | 12897 ft | 189 kts | 257° |
| 2026-04-26 12:04 | 29.65210 | -129.62197 | 13007 ft | 186 kts | 257° |
| 2026-04-26 12:04 | 29.64827 | -129.63607 | 13121 ft | 184 kts | 257° |
| 2026-04-26 12:04 | 29.64450 | -129.65001 | 13233 ft | 181 kts | 257° |
| 2026-04-26 12:05 | 29.64077 | -129.66374 | 13347 ft | 179 kts | 257° |
| 2026-04-26 12:05 | 29.63711 | -129.67728 | 13459 ft | 176 kts | 257° |
| 2026-04-26 12:05 | 29.63348 | -129.69062 | 13572 ft | 174 kts | 257° |
| 2026-04-26 12:05 | 29.62992 | -129.70381 | 13686 ft | 171 kts | 257° |
| 2026-04-26 12:06 | 29.62638 | -129.71679 | 13796 ft | 169 kts | 258° |
| 2026-04-26 12:06 | 29.62292 | -129.72959 | 13903 ft | 166 kts | 257° |
| 2026-04-26 12:06 | 29.61949 | -129.74215 | 14004 ft | 163 kts | 258° |
| 2026-04-26 12:06 | 29.61612 | -129.75459 | 14055 ft | 164 kts | 258° |
| 2026-04-26 12:07 | 29.61270 | -129.76723 | 14060 ft | 167 kts | 258° |
| 2026-04-26 12:07 | 29.60920 | -129.78008 | 14077 ft | 170 kts | 257° |
| 2026-04-26 12:07 | 29.60565 | -129.79317 | 14072 ft | 173 kts | 257° |
| 2026-04-26 12:07 | 29.60201 | -129.80649 | 14075 ft | 176 kts | 257° |
| 2026-04-26 12:08 | 29.59831 | -129.82012 | 14072 ft | 180 kts | 257° |
| 2026-04-26 12:08 | 29.59453 | -129.83396 | 14074 ft | 183 kts | 257° |
| 2026-04-26 12:08 | 29.59070 | -129.84805 | 14072 ft | 186 kts | 257° |
| 2026-04-26 12:08 | 29.58679 | -129.86237 | 14074 ft | 189 kts | 257° |
| 2026-04-26 12:09 | 29.58282 | -129.87691 | 14075 ft | 192 kts | 257° |
| 2026-04-26 12:09 | 29.57880 | -129.89167 | 14073 ft | 195 kts | 257° |
| 2026-04-26 12:09 | 29.57471 | -129.90660 | 14070 ft | 197 kts | 257° |
| 2026-04-26 12:09 | 29.57059 | -129.92170 | 14071 ft | 199 kts | 257° |
| 2026-04-26 12:10 | 29.56641 | -129.93695 | 14071 ft | 201 kts | 257° |
| 2026-04-26 12:10 | 29.56221 | -129.95237 | 14073 ft | 203 kts | 257° |
| 2026-04-26 12:10 | 29.55795 | -129.96789 | 14078 ft | 204 kts | 257° |
| 2026-04-26 12:10 | 29.55367 | -129.98353 | 14075 ft | 206 kts | 257° |
| 2026-04-26 12:11 | 29.54935 | -129.99929 | 14075 ft | 207 kts | 257° |
| 2026-04-26 12:11 | 29.54501 | -130.01513 | 14069 ft | 208 kts | 257° |
| 2026-04-26 12:11 | 29.54064 | -130.03105 | 14068 ft | 210 kts | 257° |
| 2026-04-26 12:11 | 29.53626 | -130.04704 | 14071 ft | 210 kts | 257° |
| 2026-04-26 12:12 | 29.53185 | -130.06310 | 14071 ft | 211 kts | 257° |
| 2026-04-26 12:12 | 29.52743 | -130.07921 | 14073 ft | 212 kts | 257° |
| 2026-04-26 12:12 | 29.52299 | -130.09537 | 14073 ft | 213 kts | 257° |
| 2026-04-26 12:12 | 29.52003 | -130.10610 | 14072 ft | 213 kts | 257° |
| 2026-04-26 12:13 | 29.51406 | -130.12782 | 14072 ft | 214 kts | 257° |
| 2026-04-26 12:13 | 29.50958 | -130.14410 | 14074 ft | 214 kts | 257° |
| 2026-04-26 12:13 | 29.50508 | -130.16043 | 14071 ft | 214 kts | 257° |
| 2026-04-26 12:13 | 29.50059 | -130.17674 | 14066 ft | 215 kts | 257° |
| 2026-04-26 12:14 | 29.49607 | -130.19313 | 14067 ft | 215 kts | 257° |
| 2026-04-26 12:14 | 29.49155 | -130.20952 | 14069 ft | 215 kts | 257° |
| 2026-04-26 12:14 | 29.48703 | -130.22590 | 14070 ft | 216 kts | 257° |
| 2026-04-26 12:14 | 29.48249 | -130.24232 | 14072 ft | 216 kts | 257° |
| 2026-04-26 12:15 | 29.47795 | -130.25876 | 14066 ft | 216 kts | 257° |
| 2026-04-26 12:15 | 29.47341 | -130.27520 | 14069 ft | 216 kts | 257° |
| 2026-04-26 12:15 | 29.46886 | -130.29167 | 14070 ft | 216 kts | 257° |
| 2026-04-26 12:15 | 29.46429 | -130.30813 | 14070 ft | 217 kts | 257° |
| 2026-04-26 12:16 | 29.45974 | -130.32461 | 14072 ft | 217 kts | 257° |
| 2026-04-26 12:16 | 29.45516 | -130.34111 | 14065 ft | 217 kts | 257° |
| 2026-04-26 12:16 | 29.45059 | -130.35759 | 14067 ft | 217 kts | 257° |
| 2026-04-26 12:16 | 29.44602 | -130.37412 | 14067 ft | 217 kts | 257° |
| 2026-04-26 12:17 | 29.44143 | -130.39064 | 14068 ft | 217 kts | 257° |
| 2026-04-26 12:17 | 29.43684 | -130.40717 | 14076 ft | 217 kts | 257° |
| 2026-04-26 12:17 | 29.43224 | -130.42372 | 14072 ft | 217 kts | 257° |
| 2026-04-26 12:17 | 29.42769 | -130.44011 | 14070 ft | 218 kts | 257° |
| 2026-04-26 12:18 | 29.42310 | -130.45664 | 14070 ft | 218 kts | 257° |
| 2026-04-26 12:18 | 29.41843 | -130.47342 | 14074 ft | 218 kts | 257° |
| 2026-04-26 12:18 | 29.41384 | -130.48989 | 14071 ft | 218 kts | 257° |
| 2026-04-26 12:18 | 29.40924 | -130.50643 | 14073 ft | 218 kts | 257° |
| 2026-04-26 12:19 | 29.40466 | -130.52287 | 14071 ft | 218 kts | 256° |
| 2026-04-26 12:19 | 29.40003 | -130.53946 | 14070 ft | 218 kts | 257° |
| 2026-04-26 12:19 | 29.39539 | -130.55612 | 14073 ft | 218 kts | 257° |
| 2026-04-26 12:19 | 29.39074 | -130.57275 | 14072 ft | 218 kts | 257° |
| 2026-04-26 12:20 | 29.38614 | -130.58923 | 14070 ft | 218 kts | 257° |
| 2026-04-26 12:20 | 29.38151 | -130.60581 | 14069 ft | 218 kts | 257° |
| 2026-04-26 12:20 | 29.37685 | -130.62246 | 14070 ft | 219 kts | 257° |
| 2026-04-26 12:20 | 29.37219 | -130.63914 | 14074 ft | 219 kts | 257° |
| 2026-04-26 12:21 | 29.36759 | -130.65557 | 14070 ft | 219 kts | 257° |
| 2026-04-26 12:21 | 29.36295 | -130.67215 | 14072 ft | 219 kts | 257° |
| 2026-04-26 12:21 | 29.35825 | -130.68892 | 14073 ft | 219 kts | 257° |
| 2026-04-26 12:21 | 29.35362 | -130.70543 | 14069 ft | 219 kts | 257° |
| 2026-04-26 12:22 | 29.34897 | -130.72204 | 14067 ft | 219 kts | 257° |
| 2026-04-26 12:22 | 29.34429 | -130.73869 | 14073 ft | 219 kts | 257° |
| 2026-04-26 12:22 | 29.33962 | -130.75536 | 14070 ft | 219 kts | 257° |
| 2026-04-26 12:22 | 29.33499 | -130.77182 | 14067 ft | 219 kts | 257° |
| 2026-04-26 12:23 | 29.33028 | -130.78860 | 14068 ft | 219 kts | 257° |
| 2026-04-26 12:23 | 29.32562 | -130.80515 | 14072 ft | 219 kts | 257° |
| 2026-04-26 12:23 | 29.32091 | -130.82191 | 14069 ft | 219 kts | 257° |
| 2026-04-26 12:23 | 29.31626 | -130.83842 | 14069 ft | 219 kts | 257° |
| 2026-04-26 12:24 | 29.31157 | -130.85507 | 14073 ft | 219 kts | 257° |
| 2026-04-26 12:24 | 29.30689 | -130.87169 | 14068 ft | 219 kts | 257° |
| 2026-04-26 12:24 | 29.30219 | -130.88836 | 14065 ft | 219 kts | 257° |
| 2026-04-26 12:25 | 29.29282 | -130.92154 | 14067 ft | 220 kts | 257° |
| 2026-04-26 12:25 | 29.28814 | -130.93815 | 14071 ft | 220 kts | 257° |
| 2026-04-26 12:25 | 29.28341 | -130.95488 | 14066 ft | 220 kts | 257° |
| 2026-04-26 12:25 | 29.27871 | -130.97149 | 14068 ft | 220 kts | 256° |
| 2026-04-26 12:26 | 29.27398 | -130.98823 | 14071 ft | 220 kts | 257° |
| 2026-04-26 12:26 | 29.26925 | -131.00495 | 14070 ft | 220 kts | 256° |
| 2026-04-26 12:26 | 29.26455 | -131.02155 | 14067 ft | 220 kts | 256° |
| 2026-04-26 12:26 | 29.25982 | -131.03824 | 14067 ft | 220 kts | 257° |
| 2026-04-26 12:27 | 29.25507 | -131.05500 | 14067 ft | 220 kts | 257° |
| 2026-04-26 12:27 | 29.25037 | -131.07157 | 14067 ft | 221 kts | 256° |
| 2026-04-26 12:27 | 29.24564 | -131.08822 | 14072 ft | 221 kts | 257° |
| 2026-04-26 12:27 | 29.24086 | -131.10508 | 14066 ft | 221 kts | 256° |
| 2026-04-26 12:28 | 29.23610 | -131.12183 | 14066 ft | 221 kts | 256° |
| 2026-04-26 12:28 | 29.23139 | -131.13838 | 14068 ft | 221 kts | 256° |
| 2026-04-26 12:28 | 29.22663 | -131.15513 | 14071 ft | 221 kts | 257° |
| 2026-04-26 12:28 | 29.22182 | -131.17203 | 14062 ft | 221 kts | 256° |
| 2026-04-26 12:29 | 29.21704 | -131.18881 | 14061 ft | 221 kts | 256° |
| 2026-04-26 12:29 | 29.21227 | -131.20555 | 14062 ft | 221 kts | 256° |
| 2026-04-26 12:29 | 29.20273 | -131.23902 | 14067 ft | 221 kts | 256° |
| 2026-04-26 12:30 | 29.19795 | -131.25577 | 14065 ft | 222 kts | 256° |
| 2026-04-26 12:30 | 29.19314 | -131.27262 | 14065 ft | 222 kts | 256° |
| 2026-04-26 12:30 | 29.18834 | -131.28942 | 14064 ft | 222 kts | 256° |
| 2026-04-26 12:31 | 29.17879 | -131.32282 | 14063 ft | 222 kts | 256° |
| 2026-04-26 12:31 | 29.17401 | -131.33956 | 14061 ft | 222 kts | 256° |
| 2026-04-26 12:31 | 29.16922 | -131.35628 | 14065 ft | 222 kts | 256° |
| 2026-04-26 12:31 | 29.16437 | -131.37320 | 14059 ft | 222 kts | 256° |
| 2026-04-26 12:32 | 29.15963 | -131.38978 | 14059 ft | 222 kts | 256° |
| 2026-04-26 12:32 | 29.15479 | -131.40663 | 14065 ft | 222 kts | 256° |
| 2026-04-26 12:32 | 29.14513 | -131.44031 | 14060 ft | 222 kts | 256° |
| 2026-04-26 12:33 | 29.14034 | -131.45701 | 14061 ft | 222 kts | 256° |
| 2026-04-26 12:33 | 29.13553 | -131.47376 | 14064 ft | 222 kts | 256° |
| 2026-04-26 12:33 | 29.13068 | -131.49062 | 14062 ft | 222 kts | 256° |
| 2026-04-26 12:33 | 29.12586 | -131.50737 | 14062 ft | 222 kts | 256° |
| 2026-04-26 12:34 | 29.12101 | -131.52423 | 14064 ft | 222 kts | 256° |
| 2026-04-26 12:34 | 29.11623 | -131.54082 | 14070 ft | 222 kts | 256° |
| 2026-04-26 12:34 | 29.11139 | -131.55762 | 14065 ft | 222 kts | 256° |
| 2026-04-26 12:34 | 29.10651 | -131.57458 | 14063 ft | 222 kts | 256° |
| 2026-04-26 12:35 | 29.10171 | -131.59121 | 14065 ft | 223 kts | 256° |
| 2026-04-26 12:35 | 29.09686 | -131.60801 | 14062 ft | 223 kts | 256° |
| 2026-04-26 12:35 | 29.09197 | -131.62495 | 14062 ft | 223 kts | 256° |
| 2026-04-26 12:35 | 29.08715 | -131.64168 | 14064 ft | 223 kts | 256° |
| 2026-04-26 12:36 | 29.08227 | -131.65854 | 14062 ft | 223 kts | 256° |
| 2026-04-26 12:36 | 29.07740 | -131.67540 | 14063 ft | 223 kts | 256° |
| 2026-04-26 12:36 | 29.07248 | -131.69238 | 14063 ft | 223 kts | 256° |
| 2026-04-26 12:36 | 29.06764 | -131.70911 | 14063 ft | 223 kts | 256° |
| 2026-04-26 12:37 | 29.06279 | -131.72588 | 14063 ft | 223 kts | 256° |
| 2026-04-26 12:37 | 29.05789 | -131.74280 | 14070 ft | 223 kts | 256° |
| 2026-04-26 12:37 | 29.05297 | -131.75974 | 14062 ft | 224 kts | 256° |
| 2026-04-26 12:37 | 29.04810 | -131.77654 | 14065 ft | 224 kts | 256° |
| 2026-04-26 12:38 | 29.04320 | -131.79343 | 14064 ft | 224 kts | 256° |
| 2026-04-26 12:38 | 29.03831 | -131.81029 | 14062 ft | 224 kts | 256° |
| 2026-04-26 12:38 | 29.03338 | -131.82725 | 14065 ft | 224 kts | 256° |
| 2026-04-26 12:38 | 29.03017 | -131.83830 | 14062 ft | 224 kts | 256° |
| 2026-04-26 12:39 | 29.02361 | -131.86084 | 14065 ft | 224 kts | 256° |
| 2026-04-26 12:39 | 29.02034 | -131.87208 | 14065 ft | 224 kts | 256° |
| 2026-04-26 12:39 | 29.01542 | -131.88901 | 14065 ft | 224 kts | 256° |
| 2026-04-26 12:39 | 29.01052 | -131.90584 | 14065 ft | 224 kts | 256° |
| 2026-04-26 12:40 | 29.00559 | -131.92274 | 14064 ft | 224 kts | 256° |
| 2026-04-26 12:40 | 29.00065 | -131.93972 | 14067 ft | 224 kts | 256° |
| 2026-04-26 12:40 | 28.99572 | -131.95659 | 14066 ft | 224 kts | 256° |
| 2026-04-26 12:40 | 28.99079 | -131.97349 | 14066 ft | 224 kts | 256° |
| 2026-04-26 12:41 | 28.98586 | -131.99037 | 14066 ft | 224 kts | 256° |
| 2026-04-26 12:41 | 28.98092 | -132.00729 | 14062 ft | 224 kts | 256° |
| 2026-04-26 12:41 | 28.97599 | -132.02417 | 14062 ft | 224 kts | 256° |
| 2026-04-26 12:41 | 28.97107 | -132.04100 | 14062 ft | 224 kts | 256° |
| 2026-04-26 12:42 | 28.96606 | -132.05810 | 14064 ft | 225 kts | 256° |
| 2026-04-26 12:42 | 28.96116 | -132.07485 | 14061 ft | 225 kts | 256° |
| 2026-04-26 12:42 | 28.95616 | -132.09193 | 14063 ft | 225 kts | 256° |
| 2026-04-26 12:42 | 28.95123 | -132.10875 | 14063 ft | 225 kts | 256° |
| 2026-04-26 12:43 | 28.94626 | -132.12570 | 14066 ft | 225 kts | 256° |
| 2026-04-26 12:43 | 28.94129 | -132.14264 | 14061 ft | 225 kts | 256° |
| 2026-04-26 12:43 | 28.93634 | -132.15952 | 14062 ft | 225 kts | 256° |
| 2026-04-26 12:43 | 28.93141 | -132.17629 | 14063 ft | 225 kts | 256° |
| 2026-04-26 12:44 | 28.92639 | -132.19339 | 14064 ft | 225 kts | 256° |
| 2026-04-26 12:44 | 28.92146 | -132.21017 | 14065 ft | 225 kts | 256° |
| 2026-04-26 12:44 | 28.91642 | -132.22728 | 14067 ft | 225 kts | 256° |
| 2026-04-26 12:44 | 28.91145 | -132.24419 | 14064 ft | 225 kts | 256° |
| 2026-04-26 12:45 | 28.90643 | -132.26123 | 14065 ft | 225 kts | 256° |
| 2026-04-26 12:45 | 28.90148 | -132.27803 | 14067 ft | 225 kts | 256° |
| 2026-04-26 12:45 | 28.89645 | -132.29511 | 14066 ft | 225 kts | 256° |
| 2026-04-26 12:45 | 28.89148 | -132.31197 | 14066 ft | 226 kts | 255° |
| 2026-04-26 12:46 | 28.88645 | -132.32901 | 14066 ft | 226 kts | 256° |
| 2026-04-26 12:46 | 28.88149 | -132.34580 | 14064 ft | 226 kts | 256° |
| 2026-04-26 12:46 | 28.87642 | -132.36301 | 14066 ft | 226 kts | 256° |
| 2026-04-26 12:46 | 28.87146 | -132.37978 | 14062 ft | 226 kts | 256° |
| 2026-04-26 12:47 | 28.86640 | -132.39689 | 14065 ft | 226 kts | 255° |
| 2026-04-26 12:47 | 28.86139 | -132.41381 | 14066 ft | 226 kts | 255° |
| 2026-04-26 12:47 | 28.85635 | -132.43085 | 14064 ft | 226 kts | 256° |
| 2026-04-26 12:47 | 28.85136 | -132.44772 | 14066 ft | 226 kts | 255° |
| 2026-04-26 12:48 | 28.84628 | -132.46487 | 14067 ft | 226 kts | 255° |
| 2026-04-26 12:48 | 28.84130 | -132.48166 | 14065 ft | 226 kts | 255° |
| 2026-04-26 12:48 | 28.83627 | -132.49864 | 14068 ft | 226 kts | 255° |
| 2026-04-26 12:48 | 28.83123 | -132.51559 | 14065 ft | 226 kts | 255° |
| 2026-04-26 12:49 | 28.82622 | -132.53249 | 14066 ft | 226 kts | 255° |
| 2026-04-26 12:49 | 28.82114 | -132.54958 | 14067 ft | 226 kts | 255° |
| 2026-04-26 12:49 | 28.81614 | -132.56643 | 14066 ft | 226 kts | 255° |
| 2026-04-26 12:49 | 28.81102 | -132.58364 | 14065 ft | 226 kts | 255° |
| 2026-04-26 12:50 | 28.80599 | -132.60053 | 14068 ft | 226 kts | 255° |
| 2026-04-26 12:50 | 28.80098 | -132.61737 | 14067 ft | 226 kts | 255° |
| 2026-04-26 12:50 | 28.79590 | -132.63444 | 14065 ft | 226 kts | 255° |
| 2026-04-26 12:50 | 28.79083 | -132.65144 | 14067 ft | 226 kts | 255° |
| 2026-04-26 12:51 | 28.78573 | -132.66855 | 14068 ft | 226 kts | 255° |
| 2026-04-26 12:51 | 28.78071 | -132.68540 | 14069 ft | 226 kts | 255° |
| 2026-04-26 12:51 | 28.77564 | -132.70239 | 14071 ft | 227 kts | 255° |
| 2026-04-26 12:51 | 28.77057 | -132.71935 | 14070 ft | 227 kts | 255° |
| 2026-04-26 12:52 | 28.76548 | -132.73641 | 14067 ft | 227 kts | 255° |
| 2026-04-26 12:52 | 28.76037 | -132.75350 | 14069 ft | 227 kts | 255° |
| 2026-04-26 12:52 | 28.75528 | -132.77053 | 14067 ft | 227 kts | 255° |
| 2026-04-26 12:52 | 28.75021 | -132.78745 | 14068 ft | 227 kts | 255° |
| 2026-04-26 12:53 | 28.74682 | -132.79880 | 14069 ft | 227 kts | 255° |